Time,TemperatureF,DewpointF,PressureIn,WindDirection,WindDirectionDegrees,WindSpeedMPH,WindSpeedGustMPH,Humidity,HourlyPrecipIn,Conditions,Clouds,dailyrainin,SoftwareType,DateUTC
2013-02-09 00:01:00,51.0,26.3,30.01,WNW,299,6.0,9.0,38,0.00,,,0.00,Wunderground v.1.15,2013-02-09 08:01:00,
2013-02-09 00:02:00,51.0,26.9,30.02,WNW,299,6.0,9.0,39,0.00,,,0.00,Wunderground v.1.15,2013-02-09 08:02:00,
2013-02-09 00:06:00,51.0,26.3,30.02,NW,319,6.0,9.0,38,0.00,,,0.00,Wunderground v.1.15,2013-02-09 08:06:00,
2013-02-09 00:09:00,51.1,27.0,30.01,NW,318,6.0,9.0,39,0.00,,,0.00,Wunderground v.1.15,2013-02-09 08:09:00,
2013-02-09 00:12:00,51.2,26.4,30.01,NW,319,6.0,12.0,38,0.00,,,0.00,Wunderground v.1.15,2013-02-09 08:12:00,
2013-02-09 00:15:00,51.4,26.6,30.01,NW,310,7.0,12.0,38,0.00,,,0.00,Wunderground v.1.15,2013-02-09 08:15:00,
2013-02-09 00:17:00,51.4,26.6,30.01,NW,320,7.0,13.0,38,0.00,,,0.00,Wunderground v.1.15,2013-02-09 08:17:00,
2013-02-09 00:18:00,51.5,26.7,30.01,WNW,303,8.0,13.0,38,0.00,,,0.00,Wunderground v.1.15,2013-02-09 08:18:00,
2013-02-09 00:21:00,51.4,26.6,30.01,NW,315,7.0,9.0,38,0.00,,,0.00,Wunderground v.1.15,2013-02-09 08:21:00,
2013-02-09 00:23:00,51.3,26.5,30.01,NW,307,7.0,9.0,38,0.00,,,0.00,Wunderground v.1.15,2013-02-09 08:23:00,
2013-02-09 00:25:00,51.2,26.4,30.02,WNW,293,7.0,9.0,38,0.00,,,0.00,Wunderground v.1.15,2013-02-09 08:25:00,
2013-02-09 00:26:00,51.1,26.3,30.02,WNW,297,7.0,9.0,38,0.00,,,0.00,Wunderground v.1.15,2013-02-09 08:26:00,
2013-02-09 00:28:00,51.1,26.3,30.02,NW,313,6.0,9.0,38,0.00,,,0.00,Wunderground v.1.15,2013-02-09 08:28:00,
2013-02-09 00:30:00,51.1,26.3,30.02,NW,314,6.0,6.0,38,0.00,,,0.00,Wunderground v.1.15,2013-02-09 08:30:00,
2013-02-09 00:31:00,51.2,26.4,30.01,WNW,293,6.0,11.0,38,0.00,,,0.00,Wunderground v.1.15,2013-02-09 08:31:00,
2013-02-09 00:36:00,51.2,26.4,30.01,WNW,290,7.0,11.0,38,0.00,,,0.00,Wunderground v.1.15,2013-02-09 08:36:00,
2013-02-09 00:37:00,51.3,26.5,30.01,NW,307,7.0,11.0,38,0.00,,,0.00,Wunderground v.1.15,2013-02-09 08:37:00,
2013-02-09 00:38:00,51.4,26.0,30.01,WNW,298,7.0,11.0,37,0.00,,,0.00,Wunderground v.1.15,2013-02-09 08:38:00,
2013-02-09 00:39:00,51.4,26.6,30.01,NW,305,8.0,11.0,38,0.00,,,0.00,Wunderground v.1.15,2013-02-09 08:39:00,
2013-02-09 00:42:00,51.7,26.2,30.01,NW,312,8.0,10.0,37,0.00,,,0.00,Wunderground v.1.15,2013-02-09 08:42:00,
2013-02-09 00:44:00,51.7,26.2,30.01,NNW,329,8.0,10.0,37,0.00,,,0.00,Wunderground v.1.15,2013-02-09 08:44:00,
2013-02-09 00:46:00,51.7,26.2,30.01,NW,310,8.0,10.0,37,0.00,,,0.00,Wunderground v.1.15,2013-02-09 08:46:00,
2013-02-09 00:47:00,51.6,26.1,30.01,WNW,285,7.0,10.0,37,0.00,,,0.00,Wunderground v.1.15,2013-02-09 08:47:00,
2013-02-09 00:49:00,51.7,26.2,30.01,WNW,289,7.0,12.0,37,0.00,,,0.00,Wunderground v.1.15,2013-02-09 08:49:00,
2013-02-09 00:50:00,51.7,26.2,30.01,WNW,299,7.0,7.0,37,0.00,,,0.00,Wunderground v.1.15,2013-02-09 08:50:00,
2013-02-09 00:54:00,51.7,25.6,30.01,WNW,302,8.0,10.0,36,0.00,,,0.00,Wunderground v.1.15,2013-02-09 08:54:00,
2013-02-09 00:56:00,51.8,25.7,30.01,WNW,299,8.0,10.0,36,0.00,,,0.00,Wunderground v.1.15,2013-02-09 08:56:00,
2013-02-09 00:57:00,51.8,25.7,30.01,WNW,301,8.0,10.0,36,0.00,,,0.00,Wunderground v.1.15,2013-02-09 08:57:00,
2013-02-09 01:02:00,51.6,25.5,30.01,WNW,301,8.0,9.0,36,0.00,,,0.00,Wunderground v.1.15,2013-02-09 09:02:00,
2013-02-09 01:03:00,51.7,25.6,30.02,WNW,293,8.0,9.0,36,0.00,,,0.00,Wunderground v.1.15,2013-02-09 09:03:00,
2013-02-09 01:04:00,51.7,25.6,30.01,WNW,294,8.0,11.0,36,0.00,,,0.00,Wunderground v.1.15,2013-02-09 09:04:00,
2013-02-09 01:07:00,51.8,25.7,30.02,NW,313,8.0,11.0,36,0.00,,,0.00,Wunderground v.1.15,2013-02-09 09:07:00,
2013-02-09 01:08:00,51.9,25.8,30.01,NW,312,8.0,11.0,36,0.00,,,0.00,Wunderground v.1.15,2013-02-09 09:08:00,
2013-02-09 01:12:00,51.9,25.8,30.02,NW,309,7.0,9.0,36,0.00,,,0.00,Wunderground v.1.15,2013-02-09 09:12:00,
2013-02-09 01:13:00,51.8,25.7,30.01,WNW,284,6.0,9.0,36,0.00,,,0.00,Wunderground v.1.15,2013-02-09 09:13:00,
2013-02-09 01:14:00,51.8,25.7,30.01,West,274,7.0,9.0,36,0.00,,,0.00,Wunderground v.1.15,2013-02-09 09:14:00,
2013-02-09 01:19:00,51.8,25.7,30.01,WNW,293,6.0,9.0,36,0.00,,,0.00,Wunderground v.1.15,2013-02-09 09:19:00,
2013-02-09 01:20:00,51.8,25.0,30.02,WNW,283,6.0,6.0,35,0.00,,,0.00,Wunderground v.1.15,2013-02-09 09:20:00,
2013-02-09 01:22:00,51.9,25.8,30.01,WNW,303,6.0,9.0,36,0.00,,,0.00,Wunderground v.1.15,2013-02-09 09:22:00,
2013-02-09 01:25:00,51.9,25.1,30.01,NNW,335,6.0,9.0,35,0.00,,,0.00,Wunderground v.1.15,2013-02-09 09:25:00,
2013-02-09 01:28:00,52.2,25.3,30.01,NNW,335,6.0,9.0,35,0.00,,,0.00,Wunderground v.1.15,2013-02-09 09:28:00,
2013-02-09 01:31:00,52.1,24.6,30.01,NW,307,6.0,9.0,34,0.00,,,0.00,Wunderground v.1.15,2013-02-09 09:31:00,
2013-02-09 01:32:00,52.2,24.6,30.01,NW,310,6.0,9.0,34,0.00,,,0.00,Wunderground v.1.15,2013-02-09 09:32:00,
2013-02-09 01:34:00,52.2,25.3,30.01,WNW,282,6.0,11.0,35,0.00,,,0.00,Wunderground v.1.15,2013-02-09 09:34:00,
2013-02-09 01:38:00,52.3,24.7,30.01,West,271,7.0,12.0,34,0.00,,,0.00,Wunderground v.1.15,2013-02-09 09:38:00,
2013-02-09 01:39:00,52.4,24.8,30.01,WNW,301,8.0,12.0,34,0.00,,,0.00,Wunderground v.1.15,2013-02-09 09:39:00,
2013-02-09 01:44:00,52.5,24.9,30.01,NW,320,9.0,11.0,34,0.00,,,0.00,Wunderground v.1.15,2013-02-09 09:44:00,
2013-02-09 01:49:00,52.4,24.8,30.02,WNW,291,9.0,11.0,34,0.00,,,0.00,Wunderground v.1.15,2013-02-09 09:49:00,
2013-02-09 01:50:00,52.4,24.8,30.02,NW,314,9.0,9.0,34,0.00,,,0.00,Wunderground v.1.15,2013-02-09 09:50:00,
2013-02-09 01:54:00,52.1,25.3,30.02,NW,305,8.0,9.0,35,0.00,,,0.00,Wunderground v.1.15,2013-02-09 09:54:00,
2013-02-09 01:58:00,51.8,25.0,30.02,WNW,291,7.0,10.0,35,0.00,,,0.00,Wunderground v.1.15,2013-02-09 09:58:00,
2013-02-09 01:59:00,51.8,25.0,30.01,WNW,298,7.0,10.0,35,0.00,,,0.00,Wunderground v.1.15,2013-02-09 09:59:00,
2013-02-09 02:02:00,51.7,24.9,30.02,NW,314,7.0,13.0,35,0.00,,,0.00,Wunderground v.1.15,2013-02-09 10:02:00,
2013-02-09 02:07:00,51.9,25.1,30.02,WNW,297,8.0,13.0,35,0.00,,,0.00,Wunderground v.1.15,2013-02-09 10:07:00,
2013-02-09 02:08:00,51.9,25.1,30.02,NW,310,8.0,13.0,35,0.00,,,0.00,Wunderground v.1.15,2013-02-09 10:08:00,
2013-02-09 02:11:00,51.9,25.1,30.02,WNW,282,8.0,9.0,35,0.00,,,0.00,Wunderground v.1.15,2013-02-09 10:11:00,
2013-02-09 02:15:00,51.5,28.6,30.02,West,274,7.0,11.0,41,0.00,,,0.00,Wunderground v.1.15,2013-02-09 10:15:00,
2013-02-09 02:18:00,49.8,30.9,30.02,WSW,254,6.0,11.0,48,0.00,,,0.00,Wunderground v.1.15,2013-02-09 10:18:00,
2013-02-09 02:20:00,48.5,30.7,30.02,WSW,250,5.0,5.0,50,0.00,,,0.00,Wunderground v.1.15,2013-02-09 10:20:00,
2013-02-09 02:22:00,47.6,31.8,30.02,West,262,5.0,9.0,54,0.00,,,0.00,Wunderground v.1.15,2013-02-09 10:22:00,
2013-02-09 02:25:00,46.4,32.8,30.02,WSW,251,5.0,9.0,59,0.00,,,0.00,Wunderground v.1.15,2013-02-09 10:25:00,
2013-02-09 02:28:00,45.5,33.6,30.02,West,267,6.0,9.0,63,0.00,,,0.00,Wunderground v.1.15,2013-02-09 10:28:00,
2013-02-09 02:31:00,45.1,34.0,30.02,West,274,6.0,7.0,65,0.00,,,0.00,Wunderground v.1.15,2013-02-09 10:31:00,
2013-02-09 02:34:00,44.7,34.0,30.02,WNW,283,7.0,9.0,66,0.00,,,0.00,Wunderground v.1.15,2013-02-09 10:34:00,
2013-02-09 02:35:00,44.6,34.3,30.02,WNW,297,7.0,9.0,67,0.00,,,0.00,Wunderground v.1.15,2013-02-09 10:35:00,
2013-02-09 02:38:00,44.3,34.8,30.02,West,268,6.0,10.0,69,0.00,,,0.00,Wunderground v.1.15,2013-02-09 10:38:00,
2013-02-09 02:40:00,44.2,33.9,30.02,West,277,6.0,9.0,67,0.00,,,0.00,Wunderground v.1.15,2013-02-09 10:40:00,
2013-02-09 02:42:00,44.3,34.4,30.02,West,274,7.0,9.0,68,0.00,,,0.00,Wunderground v.1.15,2013-02-09 10:42:00,
2013-02-09 02:45:00,44.6,33.9,30.02,West,276,7.0,9.0,66,0.00,,,0.00,Wunderground v.1.15,2013-02-09 10:45:00,
2013-02-09 02:46:00,44.6,33.6,30.02,WNW,285,7.0,9.0,65,0.00,,,0.00,Wunderground v.1.15,2013-02-09 10:46:00,
2013-02-09 02:47:00,44.6,33.6,30.02,WNW,289,7.0,9.0,65,0.00,,,0.00,Wunderground v.1.15,2013-02-09 10:47:00,
2013-02-09 02:50:00,44.5,33.8,30.02,WNW,288,6.0,9.0,66,0.00,,,0.00,Wunderground v.1.15,2013-02-09 10:50:00,
2013-02-09 02:52:00,44.5,33.8,30.02,West,271,6.0,9.0,66,0.00,,,0.00,Wunderground v.1.15,2013-02-09 10:52:00,
2013-02-09 02:56:00,44.5,33.8,30.02,NW,307,5.0,9.0,66,0.00,,,0.00,Wunderground v.1.15,2013-02-09 10:56:00,
2013-02-09 02:57:00,44.4,33.7,30.02,West,266,5.0,9.0,66,0.00,,,0.00,Wunderground v.1.15,2013-02-09 10:57:00,
2013-02-09 03:02:00,45.8,32.3,30.02,WNW,282,6.0,9.0,59,0.00,,,0.00,Wunderground v.1.15,2013-02-09 11:02:00,
2013-02-09 03:04:00,45.8,32.7,30.02,West,278,5.0,9.0,60,0.00,,,0.00,Wunderground v.1.15,2013-02-09 11:04:00,
2013-02-09 03:05:00,45.8,32.7,30.02,West,271,5.0,9.0,60,0.00,,,0.00,Wunderground v.1.15,2013-02-09 11:05:00,
2013-02-09 03:06:00,45.7,32.6,30.02,West,261,5.0,10.0,60,0.00,,,0.00,Wunderground v.1.15,2013-02-09 11:06:00,
2013-02-09 03:08:00,45.2,32.9,30.02,WSW,246,6.0,10.0,62,0.00,,,0.00,Wunderground v.1.15,2013-02-09 11:08:00,
2013-02-09 03:11:00,45.1,32.8,30.02,WNW,285,5.0,9.0,62,0.00,,,0.00,Wunderground v.1.15,2013-02-09 11:11:00,
2013-02-09 03:14:00,45.0,32.8,30.02,WNW,285,4.0,9.0,62,0.00,,,0.00,Wunderground v.1.15,2013-02-09 11:14:00,
2013-02-09 03:15:00,45.0,32.3,30.02,WNW,284,4.0,9.0,61,0.00,,,0.00,Wunderground v.1.15,2013-02-09 11:15:00,
2013-02-09 03:18:00,45.3,31.8,30.02,WNW,282,3.0,9.0,59,0.00,,,0.00,Wunderground v.1.15,2013-02-09 11:18:00,
2013-02-09 03:19:00,45.3,32.2,30.02,WNW,282,3.0,9.0,60,0.00,,,0.00,Wunderground v.1.15,2013-02-09 11:19:00,
2013-02-09 03:21:00,45.2,32.5,30.02,West,281,3.0,9.0,61,0.00,,,0.00,Wunderground v.1.15,2013-02-09 11:21:00,
2013-02-09 03:22:00,45.2,32.5,30.02,West,281,3.0,9.0,61,0.00,,,0.00,Wunderground v.1.15,2013-02-09 11:22:00,
2013-02-09 03:24:00,45.0,32.3,30.02,West,281,3.0,9.0,61,0.00,,,0.00,Wunderground v.1.15,2013-02-09 11:24:00,
2013-02-09 03:25:00,44.9,32.7,30.02,WNW,282,2.0,9.0,62,0.00,,,0.00,Wunderground v.1.15,2013-02-09 11:25:00,
2013-02-09 03:29:00,44.6,32.8,30.02,WNW,282,1.0,9.0,63,0.00,,,0.00,Wunderground v.1.15,2013-02-09 11:29:00,
2013-02-09 03:31:00,44.4,32.6,30.02,West,281,1.0,9.0,63,0.00,,,0.00,Wunderground v.1.15,2013-02-09 11:31:00,
2013-02-09 03:32:00,44.3,32.5,30.03,WNW,282,0.0,9.0,63,0.00,,,0.00,Wunderground v.1.15,2013-02-09 11:32:00,
2013-02-09 03:34:00,44.2,32.4,30.03,WNW,282,0.0,9.0,63,0.00,,,0.00,Wunderground v.1.15,2013-02-09 11:34:00,
2013-02-09 03:37:00,44.0,32.2,30.02,WNW,282,0.0,9.0,63,0.00,,,0.00,Wunderground v.1.15,2013-02-09 11:37:00,
2013-02-09 03:38:00,44.0,32.2,30.02,West,281,0.0,9.0,63,0.00,,,0.00,Wunderground v.1.15,2013-02-09 11:38:00,
2013-02-09 03:39:00,44.0,32.2,30.02,West,281,0.0,9.0,63,0.00,,,0.00,Wunderground v.1.15,2013-02-09 11:39:00,
2013-02-09 03:40:00,44.0,32.2,30.02,West,281,0.0,9.0,63,0.00,,,0.00,Wunderground v.1.15,2013-02-09 11:40:00,
2013-02-09 03:44:00,44.0,32.2,30.03,West,281,1.0,9.0,63,0.00,,,0.00,Wunderground v.1.15,2013-02-09 11:44:00,
2013-02-09 03:45:00,43.9,32.1,30.02,WNW,282,1.0,9.0,63,0.00,,,0.00,Wunderground v.1.15,2013-02-09 11:45:00,
2013-02-09 03:46:00,43.8,31.6,30.02,West,281,1.0,9.0,62,0.00,,,0.00,Wunderground v.1.15,2013-02-09 11:46:00,
2013-02-09 03:51:00,43.6,31.8,30.02,WNW,282,1.0,9.0,63,0.00,,,0.00,Wunderground v.1.15,2013-02-09 11:51:00,
2013-02-09 03:52:00,43.7,31.9,30.02,West,281,1.0,9.0,63,0.00,,,0.00,Wunderground v.1.15,2013-02-09 11:52:00,
2013-02-09 03:54:00,44.1,31.9,30.02,West,260,2.0,9.0,62,0.00,,,0.00,Wunderground v.1.15,2013-02-09 11:54:00,
2013-02-09 03:56:00,44.4,31.8,30.02,SW,233,3.0,9.0,61,0.00,,,0.00,Wunderground v.1.15,2013-02-09 11:56:00,
2013-02-09 03:57:00,44.5,31.9,30.02,SW,233,4.0,10.0,61,0.00,,,0.00,Wunderground v.1.15,2013-02-09 11:57:00,
2013-02-09 04:00:00,44.3,31.7,30.02,SW,233,6.0,6.0,61,0.00,,,0.00,Wunderground v.1.15,2013-02-09 12:00:00,
2013-02-09 04:01:00,44.2,32.0,30.02,SW,233,6.0,9.0,62,0.00,,,0.00,Wunderground v.1.15,2013-02-09 12:01:00,
2013-02-09 04:03:00,44.0,31.8,30.02,SW,233,5.0,9.0,62,0.00,,,0.00,Wunderground v.1.15,2013-02-09 12:03:00,
2013-02-09 04:07:00,44.3,31.3,30.02,West,273,4.0,9.0,60,0.00,,,0.00,Wunderground v.1.15,2013-02-09 12:07:00,
2013-02-09 04:09:00,44.7,31.2,30.02,West,273,2.0,9.0,59,0.00,,,0.00,Wunderground v.1.15,2013-02-09 12:09:00,
2013-02-09 04:10:00,44.9,31.4,30.02,West,273,2.0,9.0,59,0.00,,,0.00,Wunderground v.1.15,2013-02-09 12:10:00,
2013-02-09 04:13:00,45.0,31.5,30.02,West,275,2.0,9.0,59,0.00,,,0.00,Wunderground v.1.15,2013-02-09 12:13:00,
2013-02-09 04:14:00,44.9,31.8,30.02,West,270,3.0,9.0,60,0.00,,,0.00,Wunderground v.1.15,2013-02-09 12:14:00,
2013-02-09 04:18:00,44.3,31.7,30.02,West,268,4.0,9.0,61,0.00,,,0.00,Wunderground v.1.15,2013-02-09 12:18:00,
2013-02-09 04:19:00,44.2,32.0,30.02,West,267,4.0,9.0,62,0.00,,,0.00,Wunderground v.1.15,2013-02-09 12:19:00,
2013-02-09 04:22:00,44.2,32.0,30.02,WSW,254,5.0,9.0,62,0.00,,,0.00,Wunderground v.1.15,2013-02-09 12:22:00,
2013-02-09 04:24:00,44.3,31.7,30.02,WSW,253,5.0,9.0,61,0.00,,,0.00,Wunderground v.1.15,2013-02-09 12:24:00,
2013-02-09 04:25:00,44.3,31.7,30.02,WSW,247,4.0,9.0,61,0.00,,,0.00,Wunderground v.1.15,2013-02-09 12:25:00,
2013-02-09 04:26:00,44.4,32.2,30.02,WSW,246,5.0,9.0,62,0.00,,,0.00,Wunderground v.1.15,2013-02-09 12:26:00,
2013-02-09 04:29:00,44.9,32.3,30.02,WSW,253,5.0,9.0,61,0.00,,,0.00,Wunderground v.1.15,2013-02-09 12:29:00,
2013-02-09 04:30:00,44.9,32.3,30.02,WSW,248,6.0,9.0,61,0.00,,,0.00,Wunderground v.1.15,2013-02-09 12:30:00,
2013-02-09 04:35:00,45.0,31.9,30.02,West,262,5.0,9.0,60,0.00,,,0.00,Wunderground v.1.15,2013-02-09 12:35:00,
2013-02-09 04:36:00,45.0,31.9,30.02,West,275,5.0,9.0,60,0.00,,,0.00,Wunderground v.1.15,2013-02-09 12:36:00,
2013-02-09 04:37:00,45.1,31.6,30.02,West,270,5.0,9.0,59,0.00,,,0.00,Wunderground v.1.15,2013-02-09 12:37:00,
2013-02-09 04:38:00,45.1,32.0,30.02,SW,235,4.0,9.0,60,0.00,,,0.00,Wunderground v.1.15,2013-02-09 12:38:00,
2013-02-09 04:42:00,45.0,31.9,30.02,WSW,256,4.0,9.0,60,0.00,,,0.00,Wunderground v.1.15,2013-02-09 12:42:00,
2013-02-09 04:43:00,44.9,32.3,30.02,West,265,4.0,9.0,61,0.00,,,0.00,Wunderground v.1.15,2013-02-09 12:43:00,
2013-02-09 04:44:00,44.8,32.2,30.02,WSW,253,5.0,9.0,61,0.00,,,0.00,Wunderground v.1.15,2013-02-09 12:44:00,
2013-02-09 04:48:00,45.0,31.5,30.02,WSW,239,6.0,9.0,59,0.00,,,0.00,Wunderground v.1.15,2013-02-09 12:48:00,
2013-02-09 04:49:00,45.1,31.6,30.02,SW,235,6.0,9.0,59,0.00,,,0.00,Wunderground v.1.15,2013-02-09 12:49:00,
2013-02-09 04:53:00,45.1,32.0,30.02,WSW,247,6.0,9.0,60,0.00,,,0.00,Wunderground v.1.15,2013-02-09 12:53:00,
2013-02-09 04:55:00,44.8,32.2,30.02,WSW,255,6.0,9.0,61,0.00,,,0.00,Wunderground v.1.15,2013-02-09 12:55:00,
2013-02-09 04:56:00,44.7,31.7,30.02,WSW,253,6.0,9.0,60,0.00,,,0.00,Wunderground v.1.15,2013-02-09 12:56:00,
2013-02-09 05:00:00,44.9,31.0,30.02,WSW,256,4.0,4.0,58,0.00,,,0.00,Wunderground v.1.15,2013-02-09 13:00:00,
2013-02-09 05:01:00,45.0,31.5,30.02,WSW,256,4.0,9.0,59,0.00,,,0.00,Wunderground v.1.15,2013-02-09 13:01:00,
2013-02-09 05:02:00,45.1,31.6,30.02,WSW,256,3.0,9.0,59,0.00,,,0.00,Wunderground v.1.15,2013-02-09 13:02:00,
2013-02-09 05:06:00,45.2,31.3,30.02,West,273,3.0,9.0,58,0.00,,,0.00,Wunderground v.1.15,2013-02-09 13:06:00,
2013-02-09 05:09:00,45.4,31.0,30.02,WSW,258,3.0,9.0,57,0.00,,,0.00,Wunderground v.1.15,2013-02-09 13:09:00,
2013-02-09 05:11:00,45.2,31.3,30.02,WSW,256,3.0,9.0,58,0.00,,,0.00,Wunderground v.1.15,2013-02-09 13:11:00,
2013-02-09 05:15:00,44.7,30.8,30.02,WSW,254,4.0,9.0,58,0.00,,,0.00,Wunderground v.1.15,2013-02-09 13:15:00,
2013-02-09 05:18:00,44.7,30.8,30.02,WSW,254,3.0,9.0,58,0.00,,,0.00,Wunderground v.1.15,2013-02-09 13:18:00,
2013-02-09 05:19:00,44.7,30.8,30.03,WSW,253,3.0,9.0,58,0.00,,,0.00,Wunderground v.1.15,2013-02-09 13:19:00,
2013-02-09 05:22:00,44.5,31.1,30.02,WSW,254,1.0,9.0,59,0.00,,,0.00,Wunderground v.1.15,2013-02-09 13:22:00,
2013-02-09 05:25:00,44.4,31.0,30.02,WSW,253,0.0,9.0,59,0.00,,,0.00,Wunderground v.1.15,2013-02-09 13:25:00,
2013-02-09 05:28:00,44.1,31.1,30.03,WSW,253,0.0,9.0,60,0.00,,,0.00,Wunderground v.1.15,2013-02-09 13:28:00,
2013-02-09 05:33:00,43.2,30.2,30.03,WSW,253,0.0,9.0,60,0.00,,,0.00,Wunderground v.1.15,2013-02-09 13:33:00,
2013-02-09 05:36:00,43.1,30.6,30.03,WSW,253,0.0,9.0,61,0.00,,,0.00,Wunderground v.1.15,2013-02-09 13:36:00,
2013-02-09 05:40:00,43.7,30.3,30.03,WSW,253,1.0,9.0,59,0.00,,,0.00,Wunderground v.1.15,2013-02-09 13:40:00,
2013-02-09 05:41:00,43.9,30.5,30.03,WSW,253,1.0,9.0,59,0.00,,,0.00,Wunderground v.1.15,2013-02-09 13:41:00,
2013-02-09 05:45:00,45.1,29.0,30.03,WSW,251,2.0,9.0,53,0.00,,,0.00,Wunderground v.1.15,2013-02-09 13:45:00,
2013-02-09 05:48:00,45.6,29.4,30.03,WSW,251,2.0,9.0,53,0.00,,,0.00,Wunderground v.1.15,2013-02-09 13:48:00,
2013-02-09 05:51:00,45.8,29.2,30.03,WSW,250,1.0,9.0,52,0.00,,,0.00,Wunderground v.1.15,2013-02-09 13:51:00,
2013-02-09 05:53:00,45.9,28.8,30.03,WSW,251,1.0,9.0,51,0.00,,,0.00,Wunderground v.1.15,2013-02-09 13:53:00,
2013-02-09 05:55:00,46.0,29.3,30.03,WSW,251,1.0,9.0,52,0.00,,,0.00,Wunderground v.1.15,2013-02-09 13:55:00,
2013-02-09 05:58:00,46.0,29.3,30.03,WSW,253,2.0,9.0,52,0.00,,,0.00,Wunderground v.1.15,2013-02-09 13:58:00,
2013-02-09 06:03:00,45.3,30.1,30.03,West,263,2.0,9.0,55,0.00,,,0.00,Wunderground v.1.15,2013-02-09 14:03:00,
2013-02-09 06:06:00,44.7,30.4,30.03,West,263,2.0,9.0,57,0.00,,,0.00,Wunderground v.1.15,2013-02-09 14:06:00,
2013-02-09 06:08:00,43.9,31.7,30.03,West,274,2.0,9.0,62,0.00,,,0.00,Wunderground v.1.15,2013-02-09 14:08:00,
2013-02-09 06:10:00,43.2,32.2,30.03,West,275,3.0,9.0,65,0.00,,,0.00,Wunderground v.1.15,2013-02-09 14:10:00,
2013-02-09 06:15:00,42.2,32.4,30.03,West,270,4.0,9.0,68,0.00,,,0.00,Wunderground v.1.15,2013-02-09 14:15:00,
2013-02-09 06:16:00,42.0,32.2,30.03,West,270,5.0,9.0,68,0.00,,,0.00,Wunderground v.1.15,2013-02-09 14:16:00,
2013-02-09 06:21:00,41.7,32.3,30.04,West,279,5.0,9.0,69,0.00,,,0.00,Wunderground v.1.15,2013-02-09 14:21:00,
2013-02-09 06:23:00,41.5,32.1,30.04,West,280,5.0,9.0,69,0.00,,,0.00,Wunderground v.1.15,2013-02-09 14:23:00,
2013-02-09 06:25:00,41.3,32.2,30.03,West,264,5.0,9.0,70,0.00,,,0.00,Wunderground v.1.15,2013-02-09 14:25:00,
2013-02-09 06:27:00,41.2,32.2,30.04,West,277,5.0,9.0,70,0.00,,,0.00,Wunderground v.1.15,2013-02-09 14:27:00,
2013-02-09 06:29:00,41.1,32.4,30.03,West,276,5.0,9.0,71,0.00,,,0.00,Wunderground v.1.15,2013-02-09 14:29:00,
2013-02-09 06:33:00,40.8,32.5,30.04,West,274,4.0,9.0,72,0.00,,,0.00,Wunderground v.1.15,2013-02-09 14:33:00,
2013-02-09 06:38:00,40.6,32.3,30.04,West,273,4.0,9.0,72,0.00,,,0.00,Wunderground v.1.15,2013-02-09 14:38:00,
2013-02-09 06:39:00,40.6,32.3,30.04,West,273,4.0,9.0,72,0.00,,,0.00,Wunderground v.1.15,2013-02-09 14:39:00,
2013-02-09 06:40:00,40.6,32.3,30.04,West,273,4.0,4.0,72,0.00,,,0.00,Wunderground v.1.15,2013-02-09 14:40:00,
2013-02-09 06:45:00,40.6,32.3,30.04,West,273,3.0,9.0,72,0.00,,,0.00,Wunderground v.1.15,2013-02-09 14:45:00,
2013-02-09 06:47:00,40.5,32.2,30.04,West,273,3.0,9.0,72,0.00,,,0.00,Wunderground v.1.15,2013-02-09 14:47:00,
2013-02-09 06:50:00,40.5,31.8,30.04,West,273,2.0,2.0,71,0.00,,,0.00,Wunderground v.1.15,2013-02-09 14:50:00,
2013-02-09 06:53:00,40.4,31.7,30.04,West,273,2.0,9.0,71,0.00,,,0.00,Wunderground v.1.15,2013-02-09 14:53:00,
2013-02-09 06:56:00,40.2,31.5,30.04,West,273,1.0,9.0,71,0.00,,,0.00,Wunderground v.1.15,2013-02-09 14:56:00,
2013-02-09 06:58:00,40.0,31.4,30.05,West,273,1.0,9.0,71,0.00,,,0.00,Wunderground v.1.15,2013-02-09 14:58:00,
2013-02-09 06:59:00,40.0,31.7,30.05,West,273,1.0,9.0,72,0.00,,,0.00,Wunderground v.1.15,2013-02-09 14:59:00,
2013-02-09 07:04:00,40.0,31.7,30.04,West,273,1.0,9.0,72,0.00,,,0.00,Wunderground v.1.15,2013-02-09 15:04:00,
2013-02-09 07:05:00,40.0,31.7,30.04,West,273,1.0,9.0,72,0.00,,,0.00,Wunderground v.1.15,2013-02-09 15:05:00,
2013-02-09 07:09:00,39.7,31.8,30.05,West,273,1.0,9.0,73,0.00,,,0.00,Wunderground v.1.15,2013-02-09 15:09:00,
2013-02-09 07:10:00,39.7,31.8,30.05,West,273,1.0,9.0,73,0.00,,,0.00,Wunderground v.1.15,2013-02-09 15:10:00,
2013-02-09 07:15:00,39.5,31.6,30.05,West,273,1.0,9.0,73,0.00,,,0.00,Wunderground v.1.15,2013-02-09 15:15:00,
2013-02-09 07:16:00,39.5,31.6,30.05,West,274,2.0,9.0,73,0.00,,,0.00,Wunderground v.1.15,2013-02-09 15:16:00,
2013-02-09 07:17:00,39.4,31.5,30.05,West,274,1.0,9.0,73,0.00,,,0.00,Wunderground v.1.15,2013-02-09 15:17:00,
2013-02-09 07:22:00,39.1,31.5,30.05,West,278,1.0,9.0,74,0.00,,,0.00,Wunderground v.1.15,2013-02-09 15:22:00,
2013-02-09 07:25:00,38.9,31.3,30.05,West,278,1.0,9.0,74,0.00,,,0.00,Wunderground v.1.15,2013-02-09 15:25:00,
2013-02-09 07:26:00,38.8,31.2,30.05,West,278,1.0,9.0,74,0.00,,,0.00,Wunderground v.1.15,2013-02-09 15:26:00,
2013-02-09 07:31:00,38.8,31.9,30.05,West,278,1.0,9.0,76,0.00,,,0.00,Wunderground v.1.15,2013-02-09 15:31:00,
2013-02-09 07:32:00,38.8,31.9,30.05,West,278,1.0,9.0,76,0.00,,,0.00,Wunderground v.1.15,2013-02-09 15:32:00,
2013-02-09 07:37:00,39.0,32.1,30.06,West,278,1.0,9.0,76,0.00,,,0.00,Wunderground v.1.15,2013-02-09 15:37:00,
2013-02-09 07:38:00,39.1,32.2,30.06,West,278,1.0,9.0,76,0.00,,,0.00,Wunderground v.1.15,2013-02-09 15:38:00,
2013-02-09 07:39:00,39.1,32.2,30.06,West,278,1.0,9.0,76,0.00,,,0.00,Wunderground v.1.15,2013-02-09 15:39:00,
2013-02-09 07:45:00,39.3,32.4,30.06,West,278,2.0,9.0,76,0.00,,,0.00,Wunderground v.1.15,2013-02-09 15:45:00,
2013-02-09 07:50:00,39.5,31.9,30.06,WNW,300,2.0,2.0,74,0.00,,,0.00,Wunderground v.1.15,2013-02-09 15:50:00,
2013-02-09 07:52:00,39.5,32.2,30.06,WNW,300,2.0,9.0,75,0.00,,,0.00,Wunderground v.1.15,2013-02-09 15:52:00,
2013-02-09 07:55:00,39.5,32.2,30.06,WNW,300,2.0,9.0,75,0.00,,,0.00,Wunderground v.1.15,2013-02-09 15:55:00,
2013-02-09 07:56:00,39.6,32.3,30.06,WNW,301,2.0,9.0,75,0.00,,,0.00,Wunderground v.1.15,2013-02-09 15:56:00,
2013-02-09 08:01:00,40.0,32.4,30.06,NW,310,2.0,9.0,74,0.00,,,0.00,Wunderground v.1.15,2013-02-09 16:01:00,
2013-02-09 08:04:00,40.4,32.4,30.06,NW,309,2.0,9.0,73,0.00,,,0.00,Wunderground v.1.15,2013-02-09 16:04:00,
2013-02-09 08:06:00,40.5,32.2,30.06,NW,309,2.0,9.0,72,0.00,,,0.00,Wunderground v.1.15,2013-02-09 16:06:00,
2013-02-09 08:08:00,40.5,32.5,30.06,NW,310,1.0,9.0,73,0.00,,,0.00,Wunderground v.1.15,2013-02-09 16:08:00,
2013-02-09 08:13:00,40.7,32.4,30.06,NW,310,1.0,9.0,72,0.00,,,0.00,Wunderground v.1.15,2013-02-09 16:13:00,
2013-02-09 08:15:00,40.8,32.5,30.06,NW,310,1.0,9.0,72,0.00,,,0.00,Wunderground v.1.15,2013-02-09 16:15:00,
2013-02-09 08:18:00,41.0,32.7,30.06,NW,310,1.0,9.0,72,0.00,,,0.00,Wunderground v.1.15,2013-02-09 16:18:00,
2013-02-09 08:22:00,41.5,33.1,30.06,NW,310,1.0,9.0,72,0.00,,,0.00,Wunderground v.1.15,2013-02-09 16:22:00,
2013-02-09 08:24:00,41.7,33.0,30.06,NW,310,0.0,9.0,71,0.00,,,0.00,Wunderground v.1.15,2013-02-09 16:24:00,
2013-02-09 08:25:00,41.8,33.1,30.07,NW,310,0.0,9.0,71,0.00,,,0.00,Wunderground v.1.15,2013-02-09 16:25:00,
2013-02-09 08:28:00,42.0,33.3,30.07,NW,310,0.0,9.0,71,0.00,,,0.00,Wunderground v.1.15,2013-02-09 16:28:00,
2013-02-09 08:31:00,42.2,33.1,30.07,NW,310,0.0,9.0,70,0.00,,,0.00,Wunderground v.1.15,2013-02-09 16:31:00,
2013-02-09 08:33:00,42.4,33.7,30.07,NW,310,0.0,9.0,71,0.00,,,0.00,Wunderground v.1.15,2013-02-09 16:33:00,
2013-02-09 08:35:00,42.7,33.9,30.07,NW,310,0.0,9.0,71,0.00,,,0.00,Wunderground v.1.15,2013-02-09 16:35:00,
2013-02-09 08:37:00,43.0,34.2,30.07,NW,310,0.0,9.0,71,0.00,,,0.00,Wunderground v.1.15,2013-02-09 16:37:00,
2013-02-09 08:42:00,43.6,34.5,30.07,NW,309,0.0,9.0,70,0.00,,,0.00,Wunderground v.1.15,2013-02-09 16:42:00,
2013-02-09 08:45:00,43.9,34.4,30.07,NW,310,1.0,9.0,69,0.00,,,0.00,Wunderground v.1.15,2013-02-09 16:45:00,
2013-02-09 08:47:00,44.0,34.5,30.07,NW,310,1.0,9.0,69,0.00,,,0.00,Wunderground v.1.15,2013-02-09 16:47:00,
2013-02-09 08:48:00,44.0,34.5,30.07,NW,310,1.0,9.0,69,0.00,,,0.00,Wunderground v.1.15,2013-02-09 16:48:00,
2013-02-09 08:49:00,44.0,34.1,30.07,NW,310,1.0,9.0,68,0.00,,,0.00,Wunderground v.1.15,2013-02-09 16:49:00,
2013-02-09 08:51:00,44.1,34.2,30.07,NW,310,1.0,3.0,68,0.00,,,0.00,Wunderground v.1.15,2013-02-09 16:51:00,
2013-02-09 08:55:00,44.2,33.9,30.07,NW,310,1.0,9.0,67,0.00,,,0.00,Wunderground v.1.15,2013-02-09 16:55:00,
2013-02-09 08:57:00,44.3,34.0,30.07,NW,310,1.0,9.0,67,0.00,,,0.00,Wunderground v.1.15,2013-02-09 16:57:00,
2013-02-09 08:59:00,44.5,34.2,30.07,NW,310,1.0,9.0,67,0.00,,,0.00,Wunderground v.1.15,2013-02-09 16:59:00,
2013-02-09 09:01:00,44.7,34.0,30.08,NW,310,1.0,9.0,66,0.00,,,0.00,Wunderground v.1.15,2013-02-09 17:01:00,
2013-02-09 09:03:00,45.0,33.9,30.08,NW,310,0.0,9.0,65,0.00,,,0.00,Wunderground v.1.15,2013-02-09 17:03:00,
2013-02-09 09:05:00,45.1,33.6,30.08,NW,310,0.0,9.0,64,0.00,,,0.00,Wunderground v.1.15,2013-02-09 17:05:00,
2013-02-09 09:08:00,45.3,34.2,30.08,NW,310,0.0,9.0,65,0.00,,,0.00,Wunderground v.1.15,2013-02-09 17:08:00,
2013-02-09 09:11:00,45.6,33.7,30.08,NW,310,0.0,9.0,63,0.00,,,0.00,Wunderground v.1.15,2013-02-09 17:11:00,
2013-02-09 09:12:00,45.8,33.5,30.08,NW,310,0.0,9.0,62,0.00,,,0.00,Wunderground v.1.15,2013-02-09 17:12:00,
2013-02-09 09:17:00,46.1,33.4,30.08,NW,310,0.0,9.0,61,0.00,,,0.00,Wunderground v.1.15,2013-02-09 17:17:00,
2013-02-09 09:19:00,46.3,33.2,30.08,NW,310,0.0,9.0,60,0.00,,,0.00,Wunderground v.1.15,2013-02-09 17:19:00,
2013-02-09 09:22:00,46.4,33.7,30.08,NW,310,1.0,9.0,61,0.00,,,0.00,Wunderground v.1.15,2013-02-09 17:22:00,
2013-02-09 09:23:00,46.5,33.8,30.08,NNW,347,1.0,9.0,61,0.00,,,0.00,Wunderground v.1.15,2013-02-09 17:23:00,
2013-02-09 09:24:00,46.6,33.9,30.08,North,354,1.0,9.0,61,0.00,,,0.00,Wunderground v.1.15,2013-02-09 17:24:00,
2013-02-09 09:30:00,47.6,34.0,30.08,SW,219,2.0,9.0,59,0.00,,,0.00,Wunderground v.1.15,2013-02-09 17:30:00,
2013-02-09 09:31:00,47.7,34.1,30.08,SW,219,2.0,9.0,59,0.00,,,0.00,Wunderground v.1.15,2013-02-09 17:31:00,
2013-02-09 09:32:00,47.7,34.1,30.08,SW,219,3.0,9.0,59,0.00,,,0.00,Wunderground v.1.15,2013-02-09 17:32:00,
2013-02-09 09:35:00,48.0,34.8,30.08,SSW,201,3.0,9.0,60,0.00,,,0.00,Wunderground v.1.15,2013-02-09 17:35:00,
2013-02-09 09:38:00,48.1,35.7,30.08,South,180,3.0,9.0,62,0.00,,,0.00,Wunderground v.1.15,2013-02-09 17:38:00,
2013-02-09 09:39:00,48.1,35.7,30.08,South,174,3.0,9.0,62,0.00,,,0.00,Wunderground v.1.15,2013-02-09 17:39:00,
2013-02-09 09:41:00,48.1,36.5,30.08,South,170,3.0,9.0,64,0.00,,,0.00,Wunderground v.1.15,2013-02-09 17:41:00,
2013-02-09 09:44:00,48.2,37.0,30.08,SSE,159,3.0,9.0,65,0.00,,,0.00,Wunderground v.1.15,2013-02-09 17:44:00,
2013-02-09 09:45:00,48.3,36.7,30.08,SSE,160,3.0,9.0,64,0.00,,,0.00,Wunderground v.1.15,2013-02-09 17:45:00,
2013-02-09 09:48:00,48.6,36.6,30.08,SSW,197,3.0,9.0,63,0.00,,,0.00,Wunderground v.1.15,2013-02-09 17:48:00,
2013-02-09 09:53:00,48.8,37.6,30.08,SSW,199,4.0,9.0,65,0.00,,,0.00,Wunderground v.1.15,2013-02-09 17:53:00,
2013-02-09 09:54:00,48.8,37.6,30.08,SSW,202,4.0,9.0,65,0.00,,,0.00,Wunderground v.1.15,2013-02-09 17:54:00,
2013-02-09 09:58:00,49.1,38.6,30.08,SSW,193,4.0,9.0,67,0.00,,,0.00,Wunderground v.1.15,2013-02-09 17:58:00,
2013-02-09 09:59:00,49.3,38.4,30.08,South,187,4.0,9.0,66,0.00,,,0.00,Wunderground v.1.15,2013-02-09 17:59:00,
2013-02-09 10:03:00,49.6,37.1,30.08,South,188,5.0,9.0,62,0.00,,,0.00,Wunderground v.1.15,2013-02-09 18:03:00,
2013-02-09 10:04:00,49.6,37.1,30.08,South,189,5.0,9.0,62,0.00,,,0.00,Wunderground v.1.15,2013-02-09 18:04:00,
2013-02-09 10:05:00,49.7,37.6,30.08,South,187,5.0,9.0,63,0.00,,,0.00,Wunderground v.1.15,2013-02-09 18:05:00,
2013-02-09 10:09:00,49.9,37.0,30.08,SSW,193,6.0,9.0,61,0.00,,,0.00,Wunderground v.1.15,2013-02-09 18:09:00,
2013-02-09 10:11:00,50.0,36.7,30.08,South,185,6.0,9.0,60,0.00,,,0.00,Wunderground v.1.15,2013-02-09 18:11:00,
2013-02-09 10:13:00,50.0,36.7,30.08,SSW,193,5.0,9.0,60,0.00,,,0.00,Wunderground v.1.15,2013-02-09 18:13:00,
2013-02-09 10:15:00,50.1,37.2,30.08,SSW,193,5.0,9.0,61,0.00,,,0.00,Wunderground v.1.15,2013-02-09 18:15:00,
2013-02-09 10:17:00,50.4,37.9,30.08,South,189,5.0,9.0,62,0.00,,,0.00,Wunderground v.1.15,2013-02-09 18:17:00,
2013-02-09 10:19:00,50.7,38.1,30.08,South,182,5.0,9.0,62,0.00,,,0.00,Wunderground v.1.15,2013-02-09 18:19:00,
2013-02-09 10:22:00,50.9,38.3,30.08,South,178,5.0,9.0,62,0.00,,,0.00,Wunderground v.1.15,2013-02-09 18:22:00,
2013-02-09 10:23:00,50.9,37.9,30.08,South,176,4.0,9.0,61,0.00,,,0.00,Wunderground v.1.15,2013-02-09 18:23:00,
2013-02-09 10:24:00,51.0,38.4,30.08,South,191,4.0,9.0,62,0.00,,,0.00,Wunderground v.1.15,2013-02-09 18:24:00,
2013-02-09 10:26:00,51.2,37.8,30.08,South,178,4.0,9.0,60,0.00,,,0.00,Wunderground v.1.15,2013-02-09 18:26:00,
2013-02-09 10:30:00,51.4,38.0,30.08,SSW,200,5.0,9.0,60,0.00,,,0.00,Wunderground v.1.15,2013-02-09 18:30:00,
2013-02-09 10:32:00,51.5,37.6,30.08,SSW,200,5.0,9.0,59,0.00,,,0.00,Wunderground v.1.15,2013-02-09 18:32:00,
2013-02-09 10:37:00,52.0,36.3,30.08,SSW,192,5.0,9.0,55,0.00,,,0.00,Wunderground v.1.15,2013-02-09 18:37:00,
2013-02-09 10:39:00,52.2,35.6,30.08,South,179,5.0,9.0,53,0.00,,,0.00,Wunderground v.1.15,2013-02-09 18:39:00,
2013-02-09 10:42:00,52.4,33.8,30.08,SSE,162,4.0,9.0,49,0.00,,,0.00,Wunderground v.1.15,2013-02-09 18:42:00,
2013-02-09 10:45:00,52.7,33.0,30.08,SSE,162,4.0,9.0,47,0.00,,,0.00,Wunderground v.1.15,2013-02-09 18:45:00,
2013-02-09 10:46:00,52.8,33.6,30.08,SSE,164,4.0,9.0,48,0.00,,,0.00,Wunderground v.1.15,2013-02-09 18:46:00,
2013-02-09 10:47:00,52.9,33.7,30.08,South,181,4.0,9.0,48,0.00,,,0.00,Wunderground v.1.15,2013-02-09 18:47:00,
2013-02-09 10:51:00,53.3,32.5,30.08,SSE,157,3.0,9.0,45,0.00,,,0.00,Wunderground v.1.15,2013-02-09 18:51:00,
2013-02-09 10:52:00,53.3,32.5,30.08,SSE,157,3.0,9.0,45,0.00,,,0.00,Wunderground v.1.15,2013-02-09 18:52:00,
2013-02-09 10:53:00,53.4,32.0,30.08,SSE,156,3.0,9.0,44,0.00,,,0.00,Wunderground v.1.15,2013-02-09 18:53:00,
2013-02-09 10:56:00,53.8,31.2,30.08,South,183,3.0,9.0,42,0.00,,,0.00,Wunderground v.1.15,2013-02-09 18:56:00,
2013-02-09 10:58:00,53.9,30.7,30.08,South,187,3.0,9.0,41,0.00,,,0.00,Wunderground v.1.15,2013-02-09 18:58:00,
2013-02-09 11:01:00,54.1,30.9,30.08,South,173,3.0,4.0,41,0.00,,,0.00,Wunderground v.1.15,2013-02-09 19:01:00,
2013-02-09 11:02:00,54.2,30.4,30.08,South,177,3.0,5.0,40,0.00,,,0.00,Wunderground v.1.15,2013-02-09 19:02:00,
2013-02-09 11:03:00,54.1,29.7,30.08,South,177,3.0,9.0,39,0.00,,,0.00,Wunderground v.1.15,2013-02-09 19:03:00,
2013-02-09 11:08:00,54.3,29.2,30.08,South,186,2.0,9.0,38,0.00,,,0.00,Wunderground v.1.15,2013-02-09 19:08:00,
2013-02-09 11:09:00,54.4,27.3,30.08,South,179,3.0,9.0,35,0.00,,,0.00,Wunderground v.1.15,2013-02-09 19:09:00,
2013-02-09 11:13:00,54.5,27.4,30.08,South,179,3.0,9.0,35,0.00,,,0.00,Wunderground v.1.15,2013-02-09 19:13:00,
2013-02-09 11:14:00,54.5,28.1,30.08,South,174,3.0,9.0,36,0.00,,,0.00,Wunderground v.1.15,2013-02-09 19:14:00,
2013-02-09 11:17:00,54.7,28.2,30.08,South,190,3.0,9.0,36,0.00,,,0.00,Wunderground v.1.15,2013-02-09 19:17:00,
2013-02-09 11:18:00,54.8,28.3,30.08,SSW,192,3.0,9.0,36,0.00,,,0.00,Wunderground v.1.15,2013-02-09 19:18:00,
2013-02-09 11:20:00,55.0,28.5,30.08,SSE,158,3.0,3.0,36,0.00,,,0.00,Wunderground v.1.15,2013-02-09 19:20:00,
2013-02-09 11:22:00,55.1,29.9,30.08,SSW,198,3.0,9.0,38,0.00,,,0.00,Wunderground v.1.15,2013-02-09 19:22:00,
2013-02-09 11:24:00,55.1,28.6,30.08,SSW,195,3.0,9.0,36,0.00,,,0.00,Wunderground v.1.15,2013-02-09 19:24:00,
2013-02-09 11:30:00,55.3,31.4,30.07,South,182,3.0,9.0,40,0.00,,,0.00,Wunderground v.1.15,2013-02-09 19:30:00,
2013-02-09 11:31:00,55.4,30.8,30.07,SSW,206,3.0,9.0,39,0.00,,,0.00,Wunderground v.1.15,2013-02-09 19:31:00,
2013-02-09 11:32:00,55.4,30.2,30.08,SSW,212,4.0,9.0,38,0.00,,,0.00,Wunderground v.1.15,2013-02-09 19:32:00,
2013-02-09 11:34:00,55.5,30.3,30.07,SSW,195,3.0,9.0,38,0.00,,,0.00,Wunderground v.1.15,2013-02-09 19:34:00,
2013-02-09 11:37:00,55.6,29.0,30.07,SW,215,3.0,9.0,36,0.00,,,0.00,Wunderground v.1.15,2013-02-09 19:37:00,
2013-02-09 11:38:00,55.6,29.0,30.07,SSW,209,4.0,9.0,36,0.00,,,0.00,Wunderground v.1.15,2013-02-09 19:38:00,
2013-02-09 11:39:00,55.6,29.0,30.07,SSW,210,4.0,9.0,36,0.00,,,0.00,Wunderground v.1.15,2013-02-09 19:39:00,
2013-02-09 11:43:00,55.5,29.6,30.07,SSE,154,4.0,9.0,37,0.00,,,0.00,Wunderground v.1.15,2013-02-09 19:43:00,
2013-02-09 11:44:00,55.6,29.7,30.07,SSE,153,4.0,9.0,37,0.00,,,0.00,Wunderground v.1.15,2013-02-09 19:44:00,
2013-02-09 11:45:00,55.7,29.8,30.07,SSE,153,4.0,9.0,37,0.00,,,0.00,Wunderground v.1.15,2013-02-09 19:45:00,
2013-02-09 11:46:00,55.7,29.1,30.07,SE,144,4.0,9.0,36,0.00,,,0.00,Wunderground v.1.15,2013-02-09 19:46:00,
2013-02-09 11:52:00,55.8,28.5,30.07,SE,128,5.0,9.0,35,0.00,,,0.00,Wunderground v.1.15,2013-02-09 19:52:00,
2013-02-09 11:53:00,55.8,28.5,30.07,SE,125,5.0,9.0,35,0.00,,,0.00,Wunderground v.1.15,2013-02-09 19:53:00,
2013-02-09 11:54:00,55.9,27.9,30.07,ESE,113,5.0,9.0,34,0.00,,,0.00,Wunderground v.1.15,2013-02-09 19:54:00,
2013-02-09 11:57:00,56.0,28.0,30.07,ESE,114,4.0,9.0,34,0.00,,,0.00,Wunderground v.1.15,2013-02-09 19:57:00,
2013-02-09 12:00:00,56.2,27.4,30.07,SE,130,3.0,3.0,33,0.00,,,0.00,Wunderground v.1.15,2013-02-09 20:00:00,
2013-02-09 12:03:00,56.4,27.6,30.07,SSE,148,2.0,9.0,33,0.00,,,0.00,Wunderground v.1.15,2013-02-09 20:03:00,
2013-02-09 12:04:00,56.4,27.6,30.07,SSE,150,2.0,9.0,33,0.00,,,0.00,Wunderground v.1.15,2013-02-09 20:04:00,
2013-02-09 12:05:00,56.5,27.7,30.07,SSE,164,0.0,9.0,33,0.00,,,0.00,Wunderground v.1.15,2013-02-09 20:05:00,
2013-02-09 12:08:00,56.6,31.9,30.07,SSW,211,3.0,9.0,39,0.00,,,0.00,Wunderground v.1.15,2013-02-09 20:08:00,
2013-02-09 12:09:00,56.6,31.9,30.07,SSW,212,3.0,9.0,39,0.00,,,0.00,Wunderground v.1.15,2013-02-09 20:09:00,
2013-02-09 12:10:00,56.6,31.9,30.07,SSW,212,2.0,3.0,39,0.00,,,0.00,Wunderground v.1.15,2013-02-09 20:10:00,
2013-02-09 12:13:00,56.7,33.8,30.07,SW,235,5.0,7.0,42,0.00,,,0.00,Wunderground v.1.15,2013-02-09 20:13:00,
2013-02-09 12:14:00,56.8,35.1,30.07,WSW,256,5.0,8.0,44,0.00,,,0.00,Wunderground v.1.15,2013-02-09 20:14:00,
2013-02-09 12:15:00,56.8,33.9,30.07,West,280,5.0,8.0,42,0.00,,,0.00,Wunderground v.1.15,2013-02-09 20:15:00,
2013-02-09 12:18:00,57.0,34.1,30.07,SW,233,5.0,8.0,42,0.00,,,0.00,Wunderground v.1.15,2013-02-09 20:18:00,
2013-02-09 12:19:00,57.0,34.1,30.07,SW,219,7.0,9.0,42,0.00,,,0.00,Wunderground v.1.15,2013-02-09 20:19:00,
2013-02-09 12:20:00,56.9,35.2,30.07,WSW,237,5.0,7.0,44,0.00,,,0.00,Wunderground v.1.15,2013-02-09 20:20:00,
2013-02-09 12:24:00,56.7,33.2,30.07,WSW,241,4.0,9.0,41,0.00,,,0.00,Wunderground v.1.15,2013-02-09 20:24:00,
2013-02-09 12:25:00,56.6,33.2,30.07,WSW,237,7.0,9.0,41,0.00,,,0.00,Wunderground v.1.15,2013-02-09 20:25:00,
2013-02-09 12:29:00,56.8,35.7,30.07,WSW,244,7.0,9.0,45,0.00,,,0.00,Wunderground v.1.15,2013-02-09 20:29:00,
2013-02-09 12:30:00,56.9,35.8,30.07,WSW,245,8.0,8.0,45,0.00,,,0.00,Wunderground v.1.15,2013-02-09 20:30:00,
2013-02-09 12:34:00,56.6,34.3,30.06,WSW,239,6.0,8.0,43,0.00,,,0.00,Wunderground v.1.15,2013-02-09 20:34:00,
2013-02-09 12:35:00,56.7,33.8,30.06,WSW,245,7.0,8.0,42,0.00,,,0.00,Wunderground v.1.15,2013-02-09 20:35:00,
2013-02-09 12:36:00,56.7,34.4,30.06,WSW,247,6.0,8.0,43,0.00,,,0.00,Wunderground v.1.15,2013-02-09 20:36:00,
2013-02-09 12:39:00,57.0,32.3,30.06,WSW,238,4.0,9.0,39,0.00,,,0.00,Wunderground v.1.15,2013-02-09 20:39:00,
2013-02-09 12:40:00,56.9,32.8,30.06,WSW,243,5.0,8.0,40,0.00,,,0.00,Wunderground v.1.15,2013-02-09 20:40:00,
2013-02-09 12:41:00,56.8,32.7,30.06,WSW,242,5.0,9.0,40,0.00,,,0.00,Wunderground v.1.15,2013-02-09 20:41:00,
2013-02-09 12:44:00,56.7,34.4,30.06,WSW,242,8.0,9.0,43,0.00,,,0.00,Wunderground v.1.15,2013-02-09 20:44:00,
2013-02-09 12:45:00,56.7,35.0,30.06,WSW,245,6.0,9.0,44,0.00,,,0.00,Wunderground v.1.15,2013-02-09 20:45:00,
2013-02-09 12:46:00,56.7,36.1,30.06,WSW,239,5.0,9.0,46,0.00,,,0.00,Wunderground v.1.15,2013-02-09 20:46:00,
2013-02-09 12:50:00,57.3,35.0,30.06,WSW,252,6.0,6.0,43,0.00,,,0.00,Wunderground v.1.15,2013-02-09 20:50:00,
2013-02-09 12:51:00,57.3,33.2,30.06,WSW,245,5.0,9.0,40,0.00,,,0.00,Wunderground v.1.15,2013-02-09 20:51:00,
2013-02-09 12:55:00,57.1,33.0,30.06,WSW,243,6.0,9.0,40,0.00,,,0.00,Wunderground v.1.15,2013-02-09 20:55:00,
2013-02-09 12:57:00,57.1,33.0,30.06,WSW,250,4.0,9.0,40,0.00,,,0.00,Wunderground v.1.15,2013-02-09 20:57:00,
2013-02-09 13:00:00,57.4,33.9,30.06,WSW,251,7.0,9.0,41,0.00,,,0.00,Wunderground v.1.15,2013-02-09 21:00:00,
2013-02-09 13:01:00,57.4,32.6,30.06,WSW,244,5.0,9.0,39,0.00,,,0.00,Wunderground v.1.15,2013-02-09 21:01:00,
2013-02-09 13:02:00,57.3,33.2,30.06,WSW,249,3.0,9.0,40,0.00,,,0.00,Wunderground v.1.15,2013-02-09 21:02:00,
2013-02-09 13:05:00,57.2,33.1,30.06,SW,230,9.0,9.0,40,0.00,,,0.00,Wunderground v.1.15,2013-02-09 21:05:00,
2013-02-09 13:06:00,57.2,31.8,30.06,SW,223,6.0,9.0,38,0.00,,,0.00,Wunderground v.1.15,2013-02-09 21:06:00,
2013-02-09 13:07:00,57.1,31.0,30.06,SW,234,3.0,9.0,37,0.00,,,0.00,Wunderground v.1.15,2013-02-09 21:07:00,
2013-02-09 13:10:00,57.1,31.0,30.05,SW,229,1.0,6.0,37,0.00,,,0.00,Wunderground v.1.15,2013-02-09 21:10:00,
2013-02-09 13:11:00,57.1,31.0,30.05,SW,229,1.0,6.0,37,0.00,,,0.00,Wunderground v.1.15,2013-02-09 21:11:00,
2013-02-09 13:12:00,57.3,32.5,30.05,WSW,242,5.0,8.0,39,0.00,,,0.00,Wunderground v.1.15,2013-02-09 21:12:00,
2013-02-09 13:15:00,57.5,30.7,30.05,WSW,245,6.0,8.0,36,0.00,,,0.00,Wunderground v.1.15,2013-02-09 21:15:00,
2013-02-09 13:16:00,57.5,30.7,30.05,WSW,256,4.0,8.0,36,0.00,,,0.00,Wunderground v.1.15,2013-02-09 21:16:00,
2013-02-09 13:18:00,57.5,30.7,30.05,SW,224,5.0,8.0,36,0.00,,,0.00,Wunderground v.1.15,2013-02-09 21:18:00,
2013-02-09 13:20:00,57.8,31.7,30.05,WSW,251,8.0,9.0,37,0.00,,,0.00,Wunderground v.1.15,2013-02-09 21:20:00,
2013-02-09 13:21:00,57.9,31.8,30.05,WSW,251,7.0,9.0,37,0.00,,,0.00,Wunderground v.1.15,2013-02-09 21:21:00,
2013-02-09 13:23:00,58.1,30.6,30.05,WSW,250,7.0,9.0,35,0.00,,,0.00,Wunderground v.1.15,2013-02-09 21:23:00,
2013-02-09 13:26:00,58.6,33.7,30.05,SW,226,8.0,9.0,39,0.00,,,0.00,Wunderground v.1.15,2013-02-09 21:26:00,
2013-02-09 13:29:00,58.5,30.9,30.05,SW,228,6.0,10.0,35,0.00,,,0.00,Wunderground v.1.15,2013-02-09 21:29:00,
2013-02-09 13:31:00,58.4,30.8,30.05,SW,224,7.0,11.0,35,0.00,,,0.00,Wunderground v.1.15,2013-02-09 21:31:00,
2013-02-09 13:34:00,58.6,34.3,30.05,SSE,168,3.0,11.0,40,0.00,,,0.00,Wunderground v.1.15,2013-02-09 21:34:00,
2013-02-09 13:36:00,58.4,34.2,30.04,South,183,6.0,11.0,40,0.00,,,0.00,Wunderground v.1.15,2013-02-09 21:36:00,
2013-02-09 13:37:00,58.4,34.2,30.05,SSW,198,7.0,11.0,40,0.00,,,0.00,Wunderground v.1.15,2013-02-09 21:37:00,
2013-02-09 13:39:00,58.3,34.7,30.04,South,191,9.0,15.0,41,0.00,,,0.00,Wunderground v.1.15,2013-02-09 21:39:00,
2013-02-09 13:41:00,58.5,36.1,30.04,South,191,6.0,12.0,43,0.00,,,0.00,Wunderground v.1.15,2013-02-09 21:41:00,
2013-02-09 13:42:00,58.5,35.5,30.04,South,183,7.0,12.0,42,0.00,,,0.00,Wunderground v.1.15,2013-02-09 21:42:00,
2013-02-09 13:44:00,58.4,33.5,30.04,South,181,5.0,12.0,39,0.00,,,0.00,Wunderground v.1.15,2013-02-09 21:44:00,
2013-02-09 13:46:00,58.5,35.5,30.04,South,185,7.0,12.0,42,0.00,,,0.00,Wunderground v.1.15,2013-02-09 21:46:00,
2013-02-09 13:47:00,58.6,34.3,30.04,South,169,9.0,12.0,40,0.00,,,0.00,Wunderground v.1.15,2013-02-09 21:47:00,
2013-02-09 13:49:00,58.7,32.5,30.04,SSE,166,4.0,12.0,37,0.00,,,0.00,Wunderground v.1.15,2013-02-09 21:49:00,
2013-02-09 13:51:00,58.7,34.4,30.04,SE,143,9.0,9.0,40,0.00,,,0.00,Wunderground v.1.15,2013-02-09 21:51:00,
2013-02-09 13:52:00,58.7,33.8,30.04,SSE,149,9.0,9.0,39,0.00,,,0.00,Wunderground v.1.15,2013-02-09 21:52:00,
2013-02-09 13:55:00,58.3,33.4,30.04,SSE,158,7.0,11.0,39,0.00,,,0.00,Wunderground v.1.15,2013-02-09 21:55:00,
2013-02-09 13:56:00,58.2,34.6,30.04,SSE,148,9.0,12.0,41,0.00,,,0.00,Wunderground v.1.15,2013-02-09 21:56:00,
2013-02-09 13:57:00,58.1,34.5,30.04,SE,135,12.0,14.0,41,0.00,,,0.00,Wunderground v.1.15,2013-02-09 21:57:00,
2013-02-09 14:00:00,57.7,33.5,30.04,SE,141,10.0,11.0,40,0.00,,,0.00,Wunderground v.1.15,2013-02-09 22:00:00,
2013-02-09 14:02:00,57.5,34.0,30.04,SSE,156,10.0,13.0,41,0.00,,,0.00,Wunderground v.1.15,2013-02-09 22:02:00,
2013-02-09 14:03:00,57.5,34.0,30.04,SSE,156,6.0,13.0,41,0.00,,,0.00,Wunderground v.1.15,2013-02-09 22:03:00,
2013-02-09 14:05:00,57.6,34.1,30.04,SSE,160,6.0,13.0,41,0.00,,,0.00,Wunderground v.1.15,2013-02-09 22:05:00,
2013-02-09 14:07:00,57.7,34.7,30.04,SSE,160,9.0,13.0,42,0.00,,,0.00,Wunderground v.1.15,2013-02-09 22:07:00,
2013-02-09 14:08:00,57.8,33.6,30.04,SSE,165,6.0,13.0,40,0.00,,,0.00,Wunderground v.1.15,2013-02-09 22:08:00,
2013-02-09 14:10:00,57.8,34.8,30.04,SE,143,10.0,11.0,42,0.00,,,0.00,Wunderground v.1.15,2013-02-09 22:10:00,
2013-02-09 14:12:00,57.8,34.2,30.04,SSE,150,7.0,11.0,41,0.00,,,0.00,Wunderground v.1.15,2013-02-09 22:12:00,
2013-02-09 14:13:00,58.0,36.2,30.04,SSE,155,9.0,11.0,44,0.00,,,0.00,Wunderground v.1.15,2013-02-09 22:13:00,
2013-02-09 14:15:00,58.2,33.3,30.04,SSE,152,7.0,11.0,39,0.00,,,0.00,Wunderground v.1.15,2013-02-09 22:15:00,
2013-02-09 14:17:00,58.1,33.9,30.04,SE,141,9.0,11.0,40,0.00,,,0.00,Wunderground v.1.15,2013-02-09 22:17:00,
2013-02-09 14:18:00,58.1,33.9,30.04,SE,135,7.0,11.0,40,0.00,,,0.00,Wunderground v.1.15,2013-02-09 22:18:00,
2013-02-09 14:20:00,58.2,34.6,30.04,South,177,10.0,10.0,41,0.00,,,0.00,Wunderground v.1.15,2013-02-09 22:20:00,
2013-02-09 14:22:00,58.1,33.2,30.04,SSE,160,6.0,10.0,39,0.00,,,0.00,Wunderground v.1.15,2013-02-09 22:22:00,
2013-02-09 14:23:00,58.0,34.4,30.04,SSE,160,8.0,10.0,41,0.00,,,0.00,Wunderground v.1.15,2013-02-09 22:23:00,
2013-02-09 14:26:00,58.0,33.2,30.04,SSE,158,6.0,11.0,39,0.00,,,0.00,Wunderground v.1.15,2013-02-09 22:26:00,
2013-02-09 14:27:00,58.0,33.8,30.04,South,182,9.0,12.0,40,0.00,,,0.00,Wunderground v.1.15,2013-02-09 22:27:00,
2013-02-09 14:29:00,58.0,32.5,30.03,South,181,6.0,12.0,38,0.00,,,0.00,Wunderground v.1.15,2013-02-09 22:29:00,
2013-02-09 14:31:00,57.9,32.4,30.03,SSE,156,6.0,8.0,38,0.00,,,0.00,Wunderground v.1.15,2013-02-09 22:31:00,
2013-02-09 14:32:00,57.9,33.1,30.04,SSE,163,5.0,9.0,39,0.00,,,0.00,Wunderground v.1.15,2013-02-09 22:32:00,
2013-02-09 14:33:00,58.0,33.2,30.04,SSE,165,6.0,9.0,39,0.00,,,0.00,Wunderground v.1.15,2013-02-09 22:33:00,
2013-02-09 14:34:00,58.0,32.5,30.03,SSE,163,7.0,9.0,38,0.00,,,0.00,Wunderground v.1.15,2013-02-09 22:34:00,
2013-02-09 14:36:00,58.1,33.2,30.04,SSE,162,6.0,9.0,39,0.00,,,0.00,Wunderground v.1.15,2013-02-09 22:36:00,
2013-02-09 14:38:00,58.1,33.2,30.03,SSE,151,9.0,10.0,39,0.00,,,0.00,Wunderground v.1.15,2013-02-09 22:38:00,
2013-02-09 14:39:00,58.1,33.2,30.04,SSE,162,5.0,10.0,39,0.00,,,0.00,Wunderground v.1.15,2013-02-09 22:39:00,
2013-02-09 14:41:00,58.1,33.2,30.04,SSE,154,7.0,7.0,39,0.00,,,0.00,Wunderground v.1.15,2013-02-09 22:41:00,
2013-02-09 14:43:00,58.1,33.2,30.04,SSE,163,5.0,10.0,39,0.00,,,0.00,Wunderground v.1.15,2013-02-09 22:43:00,
2013-02-09 14:44:00,58.1,33.2,30.04,SSE,150,5.0,10.0,39,0.00,,,0.00,Wunderground v.1.15,2013-02-09 22:44:00,
2013-02-09 14:47:00,58.2,34.6,30.03,SSE,166,3.0,10.0,41,0.00,,,0.00,Wunderground v.1.15,2013-02-09 22:47:00,
2013-02-09 14:48:00,58.3,34.7,30.03,SSE,151,9.0,10.0,41,0.00,,,0.00,Wunderground v.1.15,2013-02-09 22:48:00,
2013-02-09 14:49:00,58.4,34.8,30.04,SSE,160,5.0,10.0,41,0.00,,,0.00,Wunderground v.1.15,2013-02-09 22:49:00,
2013-02-09 14:52:00,58.3,33.4,30.04,SSE,168,4.0,7.0,39,0.00,,,0.00,Wunderground v.1.15,2013-02-09 22:52:00,
2013-02-09 14:53:00,58.3,33.4,30.04,SSE,156,7.0,7.0,39,0.00,,,0.00,Wunderground v.1.15,2013-02-09 22:53:00,
2013-02-09 14:54:00,58.4,34.2,30.04,SSE,156,4.0,9.0,40,0.00,,,0.00,Wunderground v.1.15,2013-02-09 22:54:00,
2013-02-09 14:57:00,58.4,32.9,30.04,SSE,162,6.0,9.0,38,0.00,,,0.00,Wunderground v.1.15,2013-02-09 22:57:00,
2013-02-09 14:58:00,58.5,33.6,30.04,South,170,5.0,9.0,39,0.00,,,0.00,Wunderground v.1.15,2013-02-09 22:58:00,
2013-02-09 14:59:00,58.5,34.2,30.04,SSE,164,5.0,9.0,40,0.00,,,0.00,Wunderground v.1.15,2013-02-09 22:59:00,
2013-02-09 15:02:00,58.6,33.0,30.04,South,175,5.0,9.0,38,0.00,,,0.00,Wunderground v.1.15,2013-02-09 23:02:00,
2013-02-09 15:03:00,58.6,32.4,30.04,South,185,4.0,9.0,37,0.00,,,0.00,Wunderground v.1.15,2013-02-09 23:03:00,
2013-02-09 15:05:00,58.7,32.5,30.04,South,191,5.0,9.0,37,0.00,,,0.00,Wunderground v.1.15,2013-02-09 23:05:00,
2013-02-09 15:07:00,59.0,32.7,30.04,South,189,2.0,9.0,37,0.00,,,0.00,Wunderground v.1.15,2013-02-09 23:07:00,
2013-02-09 15:08:00,59.1,33.5,30.04,South,181,3.0,9.0,38,0.00,,,0.00,Wunderground v.1.15,2013-02-09 23:08:00,
2013-02-09 15:10:00,59.2,32.2,30.04,South,174,2.0,4.0,36,0.00,,,0.00,Wunderground v.1.15,2013-02-09 23:10:00,
2013-02-09 15:13:00,59.2,32.2,30.04,South,170,0.0,5.0,36,0.00,,,0.00,Wunderground v.1.15,2013-02-09 23:13:00,
2013-02-09 15:14:00,59.2,32.9,30.04,South,170,3.0,5.0,37,0.00,,,0.00,Wunderground v.1.15,2013-02-09 23:14:00,
2013-02-09 15:15:00,59.2,32.9,30.04,SSE,161,5.0,5.0,37,0.00,,,0.00,Wunderground v.1.15,2013-02-09 23:15:00,
2013-02-09 15:18:00,59.3,33.0,30.04,SSE,149,2.0,7.0,37,0.00,,,0.00,Wunderground v.1.15,2013-02-09 23:18:00,
2013-02-09 15:19:00,59.3,32.3,30.04,SSE,149,4.0,7.0,36,0.00,,,0.00,Wunderground v.1.15,2013-02-09 23:19:00,
2013-02-09 15:21:00,59.5,33.2,30.04,South,191,6.0,7.0,37,0.00,,,0.00,Wunderground v.1.15,2013-02-09 23:21:00,
2013-02-09 15:23:00,59.6,33.3,30.04,SW,228,9.0,9.0,37,0.00,,,0.00,Wunderground v.1.15,2013-02-09 23:23:00,
2013-02-09 15:24:00,59.6,33.3,30.04,SW,229,1.0,9.0,37,0.00,,,0.00,Wunderground v.1.15,2013-02-09 23:24:00,
2013-02-09 15:26:00,59.8,32.8,30.04,SW,229,5.0,9.0,36,0.00,,,0.00,Wunderground v.1.15,2013-02-09 23:26:00,
2013-02-09 15:28:00,59.9,32.9,30.04,SSW,208,8.0,9.0,36,0.00,,,0.00,Wunderground v.1.15,2013-02-09 23:28:00,
2013-02-09 15:29:00,59.8,32.8,30.04,SW,216,8.0,9.0,36,0.00,,,0.00,Wunderground v.1.15,2013-02-09 23:29:00,
2013-02-09 15:31:00,59.6,33.3,30.04,SW,220,8.0,8.0,37,0.00,,,0.00,Wunderground v.1.15,2013-02-09 23:31:00,
2013-02-09 15:33:00,59.6,33.3,30.04,SW,224,7.0,10.0,37,0.00,,,0.00,Wunderground v.1.15,2013-02-09 23:33:00,
2013-02-09 15:34:00,59.6,37.6,30.04,SW,224,8.0,12.0,44,0.00,,,0.00,Wunderground v.1.15,2013-02-09 23:34:00,
2013-02-09 15:35:00,59.4,38.6,30.04,SW,225,12.0,12.0,46,0.00,,,0.00,Wunderground v.1.15,2013-02-09 23:35:00,
2013-02-09 15:36:00,59.0,38.2,30.04,SW,231,14.0,14.0,46,0.00,,,0.00,Wunderground v.1.15,2013-02-09 23:36:00,
2013-02-09 15:38:00,58.7,39.0,30.04,SW,227,9.0,14.0,48,0.00,,,0.00,Wunderground v.1.15,2013-02-09 23:38:00,
2013-02-09 15:39:00,58.6,39.0,30.04,WSW,244,9.0,14.0,48,0.00,,,0.00,Wunderground v.1.15,2013-02-09 23:39:00,
2013-02-09 15:40:00,58.5,38.9,30.04,WSW,239,8.0,9.0,48,0.00,,,0.00,Wunderground v.1.15,2013-02-09 23:40:00,
2013-02-09 15:41:00,58.6,39.0,30.04,West,268,8.0,9.0,48,0.00,,,0.00,Wunderground v.1.15,2013-02-09 23:41:00,
2013-02-09 15:43:00,58.5,38.9,30.04,WSW,244,9.0,10.0,48,0.00,,,0.00,Wunderground v.1.15,2013-02-09 23:43:00,
2013-02-09 15:44:00,58.4,38.8,30.04,SW,232,6.0,10.0,48,0.00,,,0.00,Wunderground v.1.15,2013-02-09 23:44:00,
2013-02-09 15:45:00,58.4,38.8,30.04,WSW,248,8.0,10.0,48,0.00,,,0.00,Wunderground v.1.15,2013-02-09 23:45:00,
2013-02-09 15:46:00,58.4,39.3,30.04,WSW,240,6.0,10.0,49,0.00,,,0.00,Wunderground v.1.15,2013-02-09 23:46:00,
2013-02-09 15:49:00,58.2,38.6,30.04,West,274,6.0,10.0,48,0.00,,,0.00,Wunderground v.1.15,2013-02-09 23:49:00,
2013-02-09 15:50:00,58.4,38.8,30.04,WSW,251,7.0,8.0,48,0.00,,,0.00,Wunderground v.1.15,2013-02-09 23:50:00,
2013-02-09 15:51:00,58.4,38.2,30.05,WSW,254,6.0,9.0,47,0.00,,,0.00,Wunderground v.1.15,2013-02-09 23:51:00,
2013-02-09 15:54:00,58.2,38.1,30.04,WSW,256,5.0,10.0,47,0.00,,,0.00,Wunderground v.1.15,2013-02-09 23:54:00,
2013-02-09 15:55:00,58.2,38.1,30.04,West,263,6.0,10.0,47,0.00,,,0.00,Wunderground v.1.15,2013-02-09 23:55:00,
2013-02-09 15:56:00,58.1,38.5,30.04,West,278,6.0,10.0,48,0.00,,,0.00,Wunderground v.1.15,2013-02-09 23:56:00,
2013-02-09 15:59:00,58.2,38.1,30.05,SW,228,9.0,11.0,47,0.00,,,0.00,Wunderground v.1.15,2013-02-09 23:59:00,
2013-02-09 16:01:00,58.1,38.0,30.05,SW,231,7.0,9.0,47,0.00,,,0.00,Wunderground v.1.15,2013-02-10 00:01:00,
2013-02-09 16:02:00,58.1,36.9,30.05,SW,233,7.0,9.0,45,0.00,,,0.00,Wunderground v.1.15,2013-02-10 00:02:00,
2013-02-09 16:04:00,58.1,38.0,30.05,SW,224,8.0,9.0,47,0.00,,,0.00,Wunderground v.1.15,2013-02-10 00:04:00,
2013-02-09 16:05:00,58.0,37.9,30.05,SW,221,8.0,9.0,47,0.00,,,0.00,Wunderground v.1.15,2013-02-10 00:05:00,
2013-02-09 16:06:00,58.0,37.3,30.05,SW,223,7.0,9.0,46,0.00,,,0.00,Wunderground v.1.15,2013-02-10 00:06:00,
2013-02-09 16:07:00,58.0,37.3,30.05,SW,220,7.0,9.0,46,0.00,,,0.00,Wunderground v.1.15,2013-02-10 00:07:00,
2013-02-09 16:10:00,58.0,36.8,30.05,SW,232,7.0,7.0,45,0.00,,,0.00,Wunderground v.1.15,2013-02-10 00:10:00,
2013-02-09 16:11:00,57.9,36.7,30.05,SW,230,8.0,11.0,45,0.00,,,0.00,Wunderground v.1.15,2013-02-10 00:11:00,
2013-02-09 16:12:00,57.9,36.7,30.05,SW,228,5.0,11.0,45,0.00,,,0.00,Wunderground v.1.15,2013-02-10 00:12:00,
2013-02-09 16:15:00,57.9,37.2,30.05,SW,228,8.0,11.0,46,0.00,,,0.00,Wunderground v.1.15,2013-02-10 00:15:00,
2013-02-09 16:17:00,57.8,36.6,30.05,SW,224,6.0,11.0,45,0.00,,,0.00,Wunderground v.1.15,2013-02-10 00:17:00,
2013-02-09 16:20:00,57.7,35.9,30.05,SW,232,6.0,7.0,44,0.00,,,0.00,Wunderground v.1.15,2013-02-10 00:20:00,
2013-02-09 16:22:00,57.8,36.6,30.05,SW,232,3.0,7.0,45,0.00,,,0.00,Wunderground v.1.15,2013-02-10 00:22:00,
2013-02-09 16:25:00,57.9,36.7,30.05,SSW,206,5.0,7.0,45,0.00,,,0.00,Wunderground v.1.15,2013-02-10 00:25:00,
2013-02-09 16:27:00,57.8,37.7,30.05,SSW,210,7.0,9.0,47,0.00,,,0.00,Wunderground v.1.15,2013-02-10 00:27:00,
2013-02-09 16:30:00,57.5,36.9,30.05,SSW,203,7.0,7.0,46,0.00,,,0.00,Wunderground v.1.15,2013-02-10 00:30:00,
2013-02-09 16:32:00,57.3,36.1,30.05,South,184,8.0,8.0,45,0.00,,,0.00,Wunderground v.1.15,2013-02-10 00:32:00,
2013-02-09 16:35:00,57.1,35.9,30.05,SSW,200,5.0,10.0,45,0.00,,,0.00,Wunderground v.1.15,2013-02-10 00:35:00,
2013-02-09 16:37:00,56.9,36.3,30.05,SSW,205,7.0,10.0,46,0.00,,,0.00,Wunderground v.1.15,2013-02-10 00:37:00,
2013-02-09 16:38:00,56.8,36.8,30.05,SW,217,7.0,10.0,47,0.00,,,0.00,Wunderground v.1.15,2013-02-10 00:38:00,
2013-02-09 16:40:00,56.6,37.1,30.05,SSW,203,7.0,7.0,48,0.00,,,0.00,Wunderground v.1.15,2013-02-10 00:40:00,
2013-02-09 16:42:00,56.5,37.0,30.05,SSW,195,7.0,7.0,48,0.00,,,0.00,Wunderground v.1.15,2013-02-10 00:42:00,
2013-02-09 16:43:00,56.5,37.0,30.05,SSW,195,7.0,7.0,48,0.00,,,0.00,Wunderground v.1.15,2013-02-10 00:43:00,
2013-02-09 16:46:00,56.2,37.3,30.04,SSW,210,6.0,9.0,49,0.00,,,0.00,Wunderground v.1.15,2013-02-10 00:46:00,
2013-02-09 16:47:00,56.1,37.2,30.04,SW,214,6.0,9.0,49,0.00,,,0.00,Wunderground v.1.15,2013-02-10 00:47:00,
2013-02-09 16:48:00,56.0,37.1,30.04,SW,214,6.0,9.0,49,0.00,,,0.00,Wunderground v.1.15,2013-02-10 00:48:00,
2013-02-09 16:51:00,55.6,36.7,30.04,SW,215,9.0,10.0,49,0.00,,,0.00,Wunderground v.1.15,2013-02-10 00:51:00,
2013-02-09 16:52:00,55.4,36.5,30.04,SW,227,8.0,12.0,49,0.00,,,0.00,Wunderground v.1.15,2013-02-10 00:52:00,
2013-02-09 16:53:00,55.3,37.0,30.04,SW,227,7.0,12.0,50,0.00,,,0.00,Wunderground v.1.15,2013-02-10 00:53:00,
2013-02-09 16:56:00,55.0,36.7,30.04,SW,220,5.0,12.0,50,0.00,,,0.00,Wunderground v.1.15,2013-02-10 00:56:00,
2013-02-09 16:58:00,54.9,37.1,30.04,SW,225,7.0,12.0,51,0.00,,,0.00,Wunderground v.1.15,2013-02-10 00:58:00,
2013-02-09 17:01:00,54.6,36.3,30.04,WSW,247,5.0,7.0,50,0.00,,,0.00,Wunderground v.1.15,2013-02-10 01:01:00,
2013-02-09 17:03:00,54.5,36.2,30.04,WSW,255,5.0,9.0,50,0.00,,,0.00,Wunderground v.1.15,2013-02-10 01:03:00,
2013-02-09 17:06:00,54.2,35.4,30.04,WSW,238,6.0,11.0,49,0.00,,,0.00,Wunderground v.1.15,2013-02-10 01:06:00,
2013-02-09 17:08:00,54.2,35.9,30.04,WSW,237,4.0,11.0,50,0.00,,,0.00,Wunderground v.1.15,2013-02-10 01:08:00,
2013-02-09 17:11:00,54.1,35.9,30.04,WSW,249,7.0,8.0,50,0.00,,,0.00,Wunderground v.1.15,2013-02-10 01:11:00,
2013-02-09 17:13:00,54.0,35.8,30.05,WSW,255,4.0,8.0,50,0.00,,,0.00,Wunderground v.1.15,2013-02-10 01:13:00,
2013-02-09 17:16:00,53.9,35.2,30.05,SW,235,7.0,9.0,49,0.00,,,0.00,Wunderground v.1.15,2013-02-10 01:16:00,
2013-02-09 17:17:00,53.9,34.6,30.05,SW,233,4.0,9.0,48,0.00,,,0.00,Wunderground v.1.15,2013-02-10 01:17:00,
2013-02-09 17:18:00,53.8,35.1,30.05,SW,236,4.0,9.0,49,0.00,,,0.00,Wunderground v.1.15,2013-02-10 01:18:00,
2013-02-09 17:21:00,53.7,35.0,30.05,WSW,251,1.0,7.0,49,0.00,,,0.00,Wunderground v.1.15,2013-02-10 01:21:00,
2013-02-09 17:22:00,53.7,35.5,30.05,WSW,251,2.0,7.0,50,0.00,,,0.00,Wunderground v.1.15,2013-02-10 01:22:00,
2013-02-09 17:23:00,53.7,35.0,30.05,WSW,255,4.0,7.0,49,0.00,,,0.00,Wunderground v.1.15,2013-02-10 01:23:00,
2013-02-09 17:24:00,53.6,35.4,30.05,WSW,254,5.0,7.0,50,0.00,,,0.00,Wunderground v.1.15,2013-02-10 01:24:00,
2013-02-09 17:27:00,53.3,35.1,30.05,WSW,247,5.0,7.0,50,0.00,,,0.00,Wunderground v.1.15,2013-02-10 01:27:00,
2013-02-09 17:28:00,53.1,34.9,30.05,WSW,247,7.0,8.0,50,0.00,,,0.00,Wunderground v.1.15,2013-02-10 01:28:00,
2013-02-09 17:29:00,53.0,34.8,30.05,WSW,243,1.0,8.0,50,0.00,,,0.00,Wunderground v.1.15,2013-02-10 01:29:00,
2013-02-09 17:32:00,52.8,34.7,30.05,WSW,246,4.0,7.0,50,0.00,,,0.00,Wunderground v.1.15,2013-02-10 01:32:00,
2013-02-09 17:33:00,52.6,34.5,30.05,WSW,246,3.0,7.0,50,0.00,,,0.00,Wunderground v.1.15,2013-02-10 01:33:00,
2013-02-09 17:34:00,52.6,34.5,30.06,WSW,246,3.0,7.0,50,0.00,,,0.00,Wunderground v.1.15,2013-02-10 01:34:00,
2013-02-09 17:37:00,52.4,34.3,30.06,West,270,3.0,8.0,50,0.00,,,0.00,Wunderground v.1.15,2013-02-10 01:37:00,
2013-02-09 17:38:00,52.3,34.2,30.06,West,269,5.0,8.0,50,0.00,,,0.00,Wunderground v.1.15,2013-02-10 01:38:00,
2013-02-09 17:39:00,52.3,34.2,30.06,WSW,258,5.0,8.0,50,0.00,,,0.00,Wunderground v.1.15,2013-02-10 01:39:00,
2013-02-09 17:42:00,52.2,34.1,30.06,WSW,256,6.0,10.0,50,0.00,,,0.00,Wunderground v.1.15,2013-02-10 01:42:00,
2013-02-09 17:43:00,52.2,34.1,30.06,WSW,243,9.0,10.0,50,0.00,,,0.00,Wunderground v.1.15,2013-02-10 01:43:00,
2013-02-09 17:44:00,52.2,34.1,30.06,WSW,241,5.0,10.0,50,0.00,,,0.00,Wunderground v.1.15,2013-02-10 01:44:00,
2013-02-09 17:47:00,52.0,34.4,30.06,WSW,239,5.0,10.0,51,0.00,,,0.00,Wunderground v.1.15,2013-02-10 01:47:00,
2013-02-09 17:48:00,51.9,34.3,30.06,WSW,239,1.0,10.0,51,0.00,,,0.00,Wunderground v.1.15,2013-02-10 01:48:00,
2013-02-09 17:49:00,51.9,34.8,30.06,WSW,239,2.0,10.0,52,0.00,,,0.00,Wunderground v.1.15,2013-02-10 01:49:00,
2013-02-09 17:52:00,51.6,34.0,30.06,WSW,239,0.0,4.0,51,0.00,,,0.00,Wunderground v.1.15,2013-02-10 01:52:00,
2013-02-09 17:53:00,51.5,34.4,30.06,WSW,239,1.0,4.0,52,0.00,,,0.00,Wunderground v.1.15,2013-02-10 01:53:00,
2013-02-09 17:54:00,51.5,34.4,30.06,WSW,239,2.0,4.0,52,0.00,,,0.00,Wunderground v.1.15,2013-02-10 01:54:00,
2013-02-09 17:57:00,51.3,34.3,30.07,WSW,239,2.0,4.0,52,0.00,,,0.00,Wunderground v.1.15,2013-02-10 01:57:00,
2013-02-09 17:58:00,51.3,34.3,30.07,WSW,239,0.0,4.0,52,0.00,,,0.00,Wunderground v.1.15,2013-02-10 01:58:00,
2013-02-09 17:59:00,51.3,34.3,30.07,WSW,239,0.0,4.0,52,0.00,,,0.00,Wunderground v.1.15,2013-02-10 01:59:00,
2013-02-09 18:00:00,51.2,34.2,30.07,WSW,239,0.0,1.0,52,0.00,,,0.00,Wunderground v.1.15,2013-02-10 02:00:00,
2013-02-09 18:03:00,51.0,34.5,30.07,WSW,239,0.0,1.0,53,0.00,,,0.00,Wunderground v.1.15,2013-02-10 02:03:00,
2013-02-09 18:04:00,50.9,34.4,30.07,WSW,239,0.0,1.0,53,0.00,,,0.00,Wunderground v.1.15,2013-02-10 02:04:00,
2013-02-09 18:05:00,50.9,34.4,30.07,WSW,239,0.0,1.0,53,0.00,,,0.00,Wunderground v.1.15,2013-02-10 02:05:00,
2013-02-09 18:08:00,50.7,34.2,30.07,WSW,239,0.0,1.0,53,0.00,,,0.00,Wunderground v.1.15,2013-02-10 02:08:00,
2013-02-09 18:10:00,50.6,34.1,30.07,WSW,239,1.0,1.0,53,0.00,,,0.00,Wunderground v.1.15,2013-02-10 02:10:00,
2013-02-09 18:11:00,50.5,34.5,30.07,WSW,239,2.0,2.0,54,0.00,,,0.00,Wunderground v.1.15,2013-02-10 02:11:00,
2013-02-09 18:13:00,50.5,34.5,30.07,WSW,239,1.0,2.0,54,0.00,,,0.00,Wunderground v.1.15,2013-02-10 02:13:00,
2013-02-09 18:15:00,50.4,34.4,30.07,WSW,239,1.0,2.0,54,0.00,,,0.00,Wunderground v.1.15,2013-02-10 02:15:00,
2013-02-09 18:16:00,50.4,34.4,30.07,WSW,239,1.0,2.0,54,0.00,,,0.00,Wunderground v.1.15,2013-02-10 02:16:00,
2013-02-09 18:18:00,50.4,34.4,30.07,WSW,239,2.0,4.0,54,0.00,,,0.00,Wunderground v.1.15,2013-02-10 02:18:00,
2013-02-09 18:20:00,50.3,34.7,30.07,WSW,248,4.0,4.0,55,0.00,,,0.00,Wunderground v.1.15,2013-02-10 02:20:00,
2013-02-09 18:21:00,50.2,34.6,30.07,WSW,250,4.0,5.0,55,0.00,,,0.00,Wunderground v.1.15,2013-02-10 02:21:00,
2013-02-09 18:23:00,50.1,35.0,30.07,WSW,256,4.0,6.0,56,0.00,,,0.00,Wunderground v.1.15,2013-02-10 02:23:00,
2013-02-09 18:25:00,50.1,35.0,30.07,WSW,258,3.0,6.0,56,0.00,,,0.00,Wunderground v.1.15,2013-02-10 02:25:00,
2013-02-09 18:26:00,50.1,35.0,30.07,WSW,258,2.0,6.0,56,0.00,,,0.00,Wunderground v.1.15,2013-02-10 02:26:00,
2013-02-09 18:28:00,50.0,34.9,30.07,WSW,258,2.0,6.0,56,0.00,,,0.00,Wunderground v.1.15,2013-02-10 02:28:00,
2013-02-09 18:30:00,49.8,34.7,30.07,WSW,258,2.0,3.0,56,0.00,,,0.00,Wunderground v.1.15,2013-02-10 02:30:00,
2013-02-09 18:31:00,49.7,34.6,30.07,WSW,258,2.0,3.0,56,0.00,,,0.00,Wunderground v.1.15,2013-02-10 02:31:00,
2013-02-09 18:34:00,49.5,34.9,30.07,WSW,258,1.0,3.0,57,0.00,,,0.00,Wunderground v.1.15,2013-02-10 02:34:00,
2013-02-09 18:35:00,49.4,34.8,30.08,WSW,258,2.0,3.0,57,0.00,,,0.00,Wunderground v.1.15,2013-02-10 02:35:00,
2013-02-09 18:37:00,49.4,34.3,30.07,WSW,258,0.0,3.0,56,0.00,,,0.00,Wunderground v.1.15,2013-02-10 02:37:00,
2013-02-09 18:39:00,49.3,34.3,30.08,WSW,258,0.0,3.0,56,0.00,,,0.00,Wunderground v.1.15,2013-02-10 02:39:00,
2013-02-09 18:40:00,49.3,34.3,30.08,WSW,258,2.0,2.0,56,0.00,,,0.00,Wunderground v.1.15,2013-02-10 02:40:00,
2013-02-09 18:41:00,49.2,34.2,30.08,WSW,258,2.0,2.0,56,0.00,,,0.00,Wunderground v.1.15,2013-02-10 02:41:00,
2013-02-09 18:42:00,49.2,34.2,30.08,WSW,258,0.0,2.0,56,0.00,,,0.00,Wunderground v.1.15,2013-02-10 02:42:00,
2013-02-09 18:44:00,49.2,34.2,30.08,WSW,258,1.0,2.0,56,0.00,,,0.00,Wunderground v.1.15,2013-02-10 02:44:00,
2013-02-09 18:46:00,49.1,33.6,30.08,WSW,258,2.0,3.0,55,0.00,,,0.00,Wunderground v.1.15,2013-02-10 02:46:00,
2013-02-09 18:47:00,49.1,33.6,30.08,WSW,258,2.0,3.0,55,0.00,,,0.00,Wunderground v.1.15,2013-02-10 02:47:00,
2013-02-09 18:50:00,49.0,33.5,30.08,WSW,258,3.0,3.0,55,0.00,,,0.00,Wunderground v.1.15,2013-02-10 02:50:00,
2013-02-09 18:51:00,49.0,33.5,30.08,West,260,3.0,4.0,55,0.00,,,0.00,Wunderground v.1.15,2013-02-10 02:51:00,
2013-02-09 18:52:00,49.0,33.5,30.08,West,260,3.0,4.0,55,0.00,,,0.00,Wunderground v.1.15,2013-02-10 02:52:00,
2013-02-09 18:55:00,48.9,33.9,30.08,West,261,1.0,4.0,56,0.00,,,0.00,Wunderground v.1.15,2013-02-10 02:55:00,
2013-02-09 18:56:00,48.8,34.2,30.08,West,261,3.0,4.0,57,0.00,,,0.00,Wunderground v.1.15,2013-02-10 02:56:00,
2013-02-09 18:57:00,48.7,34.1,30.08,West,261,2.0,4.0,57,0.00,,,0.00,Wunderground v.1.15,2013-02-10 02:57:00,
2013-02-09 19:00:00,48.3,34.2,30.08,West,262,3.0,3.0,58,0.00,,,0.00,Wunderground v.1.15,2013-02-10 03:00:00,
2013-02-09 19:01:00,48.2,34.1,30.08,West,262,1.0,3.0,58,0.00,,,0.00,Wunderground v.1.15,2013-02-10 03:01:00,
2013-02-09 19:02:00,48.1,34.4,30.08,West,262,1.0,3.0,59,0.00,,,0.00,Wunderground v.1.15,2013-02-10 03:02:00,
2013-02-09 19:05:00,47.7,34.5,30.08,West,262,0.0,3.0,60,0.00,,,0.00,Wunderground v.1.15,2013-02-10 03:05:00,
2013-02-09 19:06:00,47.7,34.5,30.08,West,262,0.0,3.0,60,0.00,,,0.00,Wunderground v.1.15,2013-02-10 03:06:00,
2013-02-09 19:07:00,47.6,34.4,30.08,West,262,1.0,3.0,60,0.00,,,0.00,Wunderground v.1.15,2013-02-10 03:07:00,
2013-02-09 19:10:00,47.5,34.7,30.08,West,262,2.0,2.0,61,0.00,,,0.00,Wunderground v.1.15,2013-02-10 03:10:00,
2013-02-09 19:11:00,47.5,34.7,30.08,West,262,1.0,2.0,61,0.00,,,0.00,Wunderground v.1.15,2013-02-10 03:11:00,
2013-02-09 19:12:00,47.5,34.7,30.08,West,262,1.0,2.0,61,0.00,,,0.00,Wunderground v.1.15,2013-02-10 03:12:00,
2013-02-09 19:15:00,47.5,35.1,30.09,West,262,1.0,2.0,62,0.00,,,0.00,Wunderground v.1.15,2013-02-10 03:15:00,
2013-02-09 19:16:00,47.4,35.0,30.09,West,262,0.0,2.0,62,0.00,,,0.00,Wunderground v.1.15,2013-02-10 03:16:00,
2013-02-09 19:17:00,47.4,35.0,30.09,West,262,0.0,2.0,62,0.00,,,0.00,Wunderground v.1.15,2013-02-10 03:17:00,
2013-02-09 19:21:00,47.2,35.2,30.09,West,262,3.0,3.0,63,0.00,,,0.00,Wunderground v.1.15,2013-02-10 03:21:00,
2013-02-09 19:22:00,47.1,35.1,30.09,West,262,1.0,4.0,63,0.00,,,0.00,Wunderground v.1.15,2013-02-10 03:22:00,
2013-02-09 19:26:00,47.1,34.7,30.09,West,262,2.0,4.0,62,0.00,,,0.00,Wunderground v.1.15,2013-02-10 03:26:00,
2013-02-09 19:27:00,47.1,35.1,30.09,West,262,1.0,4.0,63,0.00,,,0.00,Wunderground v.1.15,2013-02-10 03:27:00,
2013-02-09 19:28:00,47.1,34.7,30.09,West,262,1.0,4.0,62,0.00,,,0.00,Wunderground v.1.15,2013-02-10 03:28:00,
2013-02-09 19:31:00,46.9,35.0,30.09,West,262,2.0,3.0,63,0.00,,,0.00,Wunderground v.1.15,2013-02-10 03:31:00,
2013-02-09 19:32:00,46.7,35.2,30.09,West,262,1.0,3.0,64,0.00,,,0.00,Wunderground v.1.15,2013-02-10 03:32:00,
2013-02-09 19:33:00,46.6,35.1,30.09,West,262,0.0,3.0,64,0.00,,,0.00,Wunderground v.1.15,2013-02-10 03:33:00,
2013-02-09 19:36:00,46.1,35.0,30.09,West,262,2.0,3.0,65,0.00,,,0.00,Wunderground v.1.15,2013-02-10 03:36:00,
2013-02-09 19:37:00,45.9,34.8,30.09,West,262,3.0,3.0,65,0.00,,,0.00,Wunderground v.1.15,2013-02-10 03:37:00,
2013-02-09 19:38:00,45.7,35.0,30.09,West,262,1.0,3.0,66,0.00,,,0.00,Wunderground v.1.15,2013-02-10 03:38:00,
2013-02-09 19:41:00,45.3,35.0,30.09,West,263,3.0,4.0,67,0.00,,,0.00,Wunderground v.1.15,2013-02-10 03:41:00,
2013-02-09 19:43:00,45.2,34.9,30.09,West,264,2.0,4.0,67,0.00,,,0.00,Wunderground v.1.15,2013-02-10 03:43:00,
2013-02-09 19:46:00,44.8,34.9,30.09,West,267,4.0,4.0,68,0.00,,,0.00,Wunderground v.1.15,2013-02-10 03:46:00,
2013-02-09 19:48:00,44.7,34.8,30.09,West,270,4.0,4.0,68,0.00,,,0.00,Wunderground v.1.15,2013-02-10 03:48:00,
2013-02-09 19:51:00,44.5,34.6,30.09,West,274,2.0,3.0,68,0.00,,,0.00,Wunderground v.1.15,2013-02-10 03:51:00,
2013-02-09 19:52:00,44.5,34.6,30.09,West,274,2.0,3.0,68,0.00,,,0.00,Wunderground v.1.15,2013-02-10 03:52:00,
2013-02-09 19:53:00,44.4,34.9,30.09,West,274,1.0,3.0,69,0.00,,,0.00,Wunderground v.1.15,2013-02-10 03:53:00,
2013-02-09 19:54:00,44.3,34.8,30.09,West,274,1.0,3.0,69,0.00,,,0.00,Wunderground v.1.15,2013-02-10 03:54:00,
2013-02-09 19:56:00,44.2,34.7,30.09,West,274,3.0,3.0,69,0.00,,,0.00,Wunderground v.1.15,2013-02-10 03:56:00,
2013-02-09 19:57:00,44.2,34.7,30.09,West,274,3.0,3.0,69,0.00,,,0.00,Wunderground v.1.15,2013-02-10 03:57:00,
2013-02-09 19:58:00,44.2,34.7,30.09,WNW,283,3.0,4.0,69,0.00,,,0.00,Wunderground v.1.15,2013-02-10 03:58:00,
2013-02-09 19:59:00,44.3,34.8,30.10,WNW,290,3.0,5.0,69,0.00,,,0.00,Wunderground v.1.15,2013-02-10 03:59:00,
2013-02-09 20:02:00,44.3,34.8,30.10,WNW,299,3.0,5.0,69,0.00,,,0.00,Wunderground v.1.15,2013-02-10 04:02:00,
2013-02-09 20:03:00,44.2,34.7,30.09,WNW,299,3.0,5.0,69,0.00,,,0.00,Wunderground v.1.15,2013-02-10 04:03:00,
2013-02-09 20:04:00,44.2,34.7,30.10,WNW,299,1.0,5.0,69,0.00,,,0.00,Wunderground v.1.15,2013-02-10 04:04:00,
2013-02-09 20:07:00,44.0,34.8,30.09,WNW,299,2.0,5.0,70,0.00,,,0.00,Wunderground v.1.15,2013-02-10 04:07:00,
2013-02-09 20:08:00,44.0,34.8,30.10,WNW,299,1.0,5.0,70,0.00,,,0.00,Wunderground v.1.15,2013-02-10 04:08:00,
2013-02-09 20:09:00,44.0,34.8,30.09,WNW,299,2.0,5.0,70,0.00,,,0.00,Wunderground v.1.15,2013-02-10 04:09:00,
2013-02-09 20:12:00,44.0,34.8,30.10,WNW,299,3.0,4.0,70,0.00,,,0.00,Wunderground v.1.15,2013-02-10 04:12:00,
2013-02-09 20:13:00,44.0,34.8,30.10,WNW,299,3.0,4.0,70,0.00,,,0.00,Wunderground v.1.15,2013-02-10 04:13:00,
2013-02-09 20:14:00,44.0,34.8,30.10,WNW,300,4.0,4.0,70,0.00,,,0.00,Wunderground v.1.15,2013-02-10 04:14:00,
2013-02-09 20:17:00,44.0,34.5,30.10,WNW,301,4.0,4.0,69,0.00,,,0.00,Wunderground v.1.15,2013-02-10 04:17:00,
2013-02-09 20:18:00,44.0,34.5,30.10,WNW,302,4.0,4.0,69,0.00,,,0.00,Wunderground v.1.15,2013-02-10 04:18:00,
2013-02-09 20:19:00,44.0,34.5,30.10,NW,305,4.0,4.0,69,0.00,,,0.00,Wunderground v.1.15,2013-02-10 04:19:00,
2013-02-09 20:22:00,44.0,34.5,30.10,NW,310,4.0,5.0,69,0.00,,,0.00,Wunderground v.1.15,2013-02-10 04:22:00,
2013-02-09 20:23:00,44.1,34.2,30.10,NW,310,2.0,5.0,68,0.00,,,0.00,Wunderground v.1.15,2013-02-10 04:23:00,
2013-02-09 20:24:00,44.2,34.3,30.10,NW,310,1.0,5.0,68,0.00,,,0.00,Wunderground v.1.15,2013-02-10 04:24:00,
2013-02-09 20:27:00,44.0,34.5,30.10,NW,310,0.0,5.0,69,0.00,,,0.00,Wunderground v.1.15,2013-02-10 04:27:00,
2013-02-09 20:29:00,43.9,34.4,30.10,NW,310,3.0,5.0,69,0.00,,,0.00,Wunderground v.1.15,2013-02-10 04:29:00,
2013-02-09 20:32:00,43.5,34.0,30.10,NW,310,0.0,3.0,69,0.00,,,0.00,Wunderground v.1.15,2013-02-10 04:32:00,
2013-02-09 20:34:00,43.4,33.9,30.10,NW,310,0.0,3.0,69,0.00,,,0.00,Wunderground v.1.15,2013-02-10 04:34:00,
2013-02-09 20:35:00,43.2,34.1,30.10,NW,310,0.0,3.0,70,0.00,,,0.00,Wunderground v.1.15,2013-02-10 04:35:00,
2013-02-09 20:37:00,42.9,33.8,30.10,NW,310,0.0,3.0,70,0.00,,,0.00,Wunderground v.1.15,2013-02-10 04:37:00,
2013-02-09 20:39:00,42.8,34.0,30.10,NW,310,0.0,3.0,71,0.00,,,0.00,Wunderground v.1.15,2013-02-10 04:39:00,
2013-02-09 20:40:00,42.7,33.9,30.10,NW,310,0.0,0.0,71,0.00,,,0.00,Wunderground v.1.15,2013-02-10 04:40:00,
2013-02-09 20:43:00,42.6,33.9,30.10,NW,310,0.0,0.0,71,0.00,,,0.00,Wunderground v.1.15,2013-02-10 04:43:00,
2013-02-09 20:44:00,42.5,33.8,30.10,NW,310,0.0,0.0,71,0.00,,,0.00,Wunderground v.1.15,2013-02-10 04:44:00,
2013-02-09 20:45:00,42.4,34.0,30.10,NW,310,0.0,0.0,72,0.00,,,0.00,Wunderground v.1.15,2013-02-10 04:45:00,
2013-02-09 20:48:00,42.3,33.9,30.10,NW,310,0.0,0.0,72,0.00,,,0.00,Wunderground v.1.15,2013-02-10 04:48:00,
2013-02-09 20:49:00,42.3,33.9,30.10,NW,310,0.0,0.0,72,0.00,,,0.00,Wunderground v.1.15,2013-02-10 04:49:00,
2013-02-09 20:50:00,42.2,34.2,30.10,NW,310,0.0,0.0,73,0.00,,,0.00,Wunderground v.1.15,2013-02-10 04:50:00,
2013-02-09 20:53:00,42.2,34.2,30.10,NW,310,0.0,1.0,73,0.00,,,0.00,Wunderground v.1.15,2013-02-10 04:53:00,
2013-02-09 20:54:00,42.2,34.2,30.10,NW,310,0.0,1.0,73,0.00,,,0.00,Wunderground v.1.15,2013-02-10 04:54:00,
2013-02-09 20:55:00,42.1,34.1,30.10,NW,310,0.0,1.0,73,0.00,,,0.00,Wunderground v.1.15,2013-02-10 04:55:00,
2013-02-09 20:58:00,42.0,34.0,30.10,NW,310,0.0,1.0,73,0.00,,,0.00,Wunderground v.1.15,2013-02-10 04:58:00,
2013-02-09 20:59:00,42.0,34.0,30.10,NW,310,0.0,1.0,73,0.00,,,0.00,Wunderground v.1.15,2013-02-10 04:59:00,
2013-02-09 21:00:00,42.0,34.0,30.10,NW,310,1.0,1.0,73,0.00,,,0.00,Wunderground v.1.15,2013-02-10 05:00:00,
2013-02-09 21:05:00,41.6,33.6,30.10,NW,310,0.0,1.0,73,0.00,,,0.00,Wunderground v.1.15,2013-02-10 05:05:00,
2013-02-09 21:10:00,41.3,33.3,30.10,NW,310,0.0,0.0,73,0.00,,,0.00,Wunderground v.1.15,2013-02-10 05:10:00,
2013-02-09 21:15:00,41.1,33.4,30.11,NW,310,0.0,0.0,74,0.00,,,0.00,Wunderground v.1.15,2013-02-10 05:15:00,
2013-02-09 21:16:00,41.1,33.4,30.11,NW,310,0.0,0.0,74,0.00,,,0.00,Wunderground v.1.15,2013-02-10 05:16:00,
2013-02-09 21:20:00,40.8,33.2,30.11,NW,310,0.0,0.0,74,0.00,,,0.00,Wunderground v.1.15,2013-02-10 05:20:00,
2013-02-09 21:21:00,40.7,33.4,30.11,NW,310,0.0,0.0,75,0.00,,,0.00,Wunderground v.1.15,2013-02-10 05:21:00,
2013-02-09 21:25:00,40.7,33.4,30.11,NW,310,0.0,0.0,75,0.00,,,0.00,Wunderground v.1.15,2013-02-10 05:25:00,
2013-02-09 21:26:00,40.7,33.7,30.11,NW,310,0.0,0.0,76,0.00,,,0.00,Wunderground v.1.15,2013-02-10 05:26:00,
2013-02-09 21:30:00,40.8,33.5,30.11,NW,310,0.0,0.0,75,0.00,,,0.00,Wunderground v.1.15,2013-02-10 05:30:00,
2013-02-09 21:31:00,40.8,33.5,30.11,NW,310,0.0,0.0,75,0.00,,,0.00,Wunderground v.1.15,2013-02-10 05:31:00,
2013-02-09 21:35:00,40.7,33.4,30.11,NW,310,1.0,2.0,75,0.00,,,0.00,Wunderground v.1.15,2013-02-10 05:35:00,
2013-02-09 21:36:00,40.7,33.4,30.11,NW,310,1.0,2.0,75,0.00,,,0.00,Wunderground v.1.15,2013-02-10 05:36:00,
2013-02-09 21:37:00,40.6,33.3,30.11,NW,310,0.0,2.0,75,0.00,,,0.00,Wunderground v.1.15,2013-02-10 05:37:00,
2013-02-09 21:41:00,40.5,33.2,30.11,NW,310,0.0,0.0,75,0.00,,,0.00,Wunderground v.1.15,2013-02-10 05:41:00,
2013-02-09 21:42:00,40.5,33.2,30.11,NW,310,0.0,0.0,75,0.00,,,0.00,Wunderground v.1.15,2013-02-10 05:42:00,
2013-02-09 21:46:00,40.5,33.5,30.11,NW,310,0.0,0.0,76,0.00,,,0.00,Wunderground v.1.15,2013-02-10 05:46:00,
2013-02-09 21:47:00,40.5,33.5,30.11,NW,310,0.0,1.0,76,0.00,,,0.00,Wunderground v.1.15,2013-02-10 05:47:00,
2013-02-09 21:51:00,40.5,33.2,30.11,NW,310,0.0,1.0,75,0.00,,,0.00,Wunderground v.1.15,2013-02-10 05:51:00,
2013-02-09 21:53:00,40.4,33.1,30.11,NW,310,0.0,1.0,75,0.00,,,0.00,Wunderground v.1.15,2013-02-10 05:53:00,
2013-02-09 21:56:00,40.2,32.9,30.11,NW,310,0.0,1.0,75,0.00,,,0.00,Wunderground v.1.15,2013-02-10 05:56:00,
2013-02-09 21:57:00,40.2,32.9,30.11,NW,310,0.0,1.0,75,0.00,,,0.00,Wunderground v.1.15,2013-02-10 05:57:00,
2013-02-09 21:58:00,40.1,33.1,30.11,NW,310,0.0,1.0,76,0.00,,,0.00,Wunderground v.1.15,2013-02-10 05:58:00,
2013-02-09 22:01:00,40.0,33.0,30.11,NW,310,2.0,2.0,76,0.00,,,0.00,Wunderground v.1.15,2013-02-10 06:01:00,
2013-02-09 22:02:00,40.0,33.0,30.11,NW,310,2.0,2.0,76,0.00,,,0.00,Wunderground v.1.15,2013-02-10 06:02:00,
2013-02-09 22:03:00,39.9,32.9,30.11,NW,310,2.0,3.0,76,0.00,,,0.00,Wunderground v.1.15,2013-02-10 06:03:00,
2013-02-09 22:06:00,39.7,33.1,30.11,NW,310,2.0,3.0,77,0.00,,,0.00,Wunderground v.1.15,2013-02-10 06:06:00,
2013-02-09 22:07:00,39.7,33.1,30.11,NW,310,4.0,4.0,77,0.00,,,0.00,Wunderground v.1.15,2013-02-10 06:07:00,
2013-02-09 22:08:00,39.3,32.7,30.11,NW,310,2.0,4.0,77,0.00,,,0.00,Wunderground v.1.15,2013-02-10 06:08:00,
2013-02-09 22:11:00,38.7,32.7,30.11,NW,310,1.0,2.0,79,0.00,,,0.00,Wunderground v.1.15,2013-02-10 06:11:00,
2013-02-09 22:12:00,38.6,32.6,30.11,NW,310,2.0,2.0,79,0.00,,,0.00,Wunderground v.1.15,2013-02-10 06:12:00,
2013-02-09 22:14:00,38.4,32.8,30.11,NW,310,0.0,2.0,80,0.00,,,0.00,Wunderground v.1.15,2013-02-10 06:14:00,
2013-02-09 22:17:00,38.2,32.6,30.11,NW,310,2.0,3.0,80,0.00,,,0.00,Wunderground v.1.15,2013-02-10 06:17:00,
2013-02-09 22:19:00,38.0,32.7,30.11,NW,310,1.0,3.0,81,0.00,,,0.00,Wunderground v.1.15,2013-02-10 06:19:00,
2013-02-09 22:22:00,37.9,32.6,30.11,NW,310,1.0,2.0,81,0.00,,,0.00,Wunderground v.1.15,2013-02-10 06:22:00,
2013-02-09 22:23:00,37.9,32.9,30.11,NW,310,1.0,2.0,82,0.00,,,0.00,Wunderground v.1.15,2013-02-10 06:23:00,
2013-02-09 22:24:00,38.0,33.0,30.11,NW,310,0.0,2.0,82,0.00,,,0.00,Wunderground v.1.15,2013-02-10 06:24:00,
2013-02-09 22:27:00,38.2,33.2,30.11,NW,310,0.0,2.0,82,0.00,,,0.00,Wunderground v.1.15,2013-02-10 06:27:00,
2013-02-09 22:28:00,38.2,33.2,30.11,NW,310,0.0,2.0,82,0.00,,,0.00,Wunderground v.1.15,2013-02-10 06:28:00,
2013-02-09 22:29:00,38.2,32.9,30.11,NW,310,0.0,2.0,81,0.00,,,0.00,Wunderground v.1.15,2013-02-10 06:29:00,
2013-02-09 22:32:00,38.2,32.9,30.11,NW,310,0.0,1.0,81,0.00,,,0.00,Wunderground v.1.15,2013-02-10 06:32:00,
2013-02-09 22:33:00,38.1,32.8,30.11,NW,310,0.0,1.0,81,0.00,,,0.00,Wunderground v.1.15,2013-02-10 06:33:00,
2013-02-09 22:34:00,38.1,32.8,30.11,NW,310,0.0,1.0,81,0.00,,,0.00,Wunderground v.1.15,2013-02-10 06:34:00,
2013-02-09 22:37:00,38.0,32.7,30.11,NW,310,0.0,1.0,81,0.00,,,0.00,Wunderground v.1.15,2013-02-10 06:37:00,
2013-02-09 22:38:00,38.0,32.7,30.11,NW,310,0.0,1.0,81,0.00,,,0.00,Wunderground v.1.15,2013-02-10 06:38:00,
2013-02-09 22:40:00,38.0,32.7,30.11,NW,310,0.0,0.0,81,0.00,,,0.00,Wunderground v.1.15,2013-02-10 06:40:00,
2013-02-09 22:42:00,37.9,32.6,30.11,NW,310,0.0,0.0,81,0.00,,,0.00,Wunderground v.1.15,2013-02-10 06:42:00,
2013-02-09 22:43:00,37.8,32.5,30.11,NW,310,0.0,0.0,81,0.00,,,0.00,Wunderground v.1.15,2013-02-10 06:43:00,
2013-02-09 22:45:00,37.8,32.5,30.11,NW,310,0.0,0.0,81,0.00,,,0.00,Wunderground v.1.15,2013-02-10 06:45:00,
2013-02-09 22:47:00,37.7,32.4,30.11,NW,310,0.0,0.0,81,0.00,,,0.00,Wunderground v.1.15,2013-02-10 06:47:00,
2013-02-09 22:48:00,37.7,32.4,30.11,NW,310,0.0,0.0,81,0.00,,,0.00,Wunderground v.1.15,2013-02-10 06:48:00,
2013-02-09 22:50:00,37.6,32.3,30.11,NW,310,0.0,0.0,81,0.00,,,0.00,Wunderground v.1.15,2013-02-10 06:50:00,
2013-02-09 22:52:00,37.5,32.2,30.11,NW,310,0.0,0.0,81,0.00,,,0.00,Wunderground v.1.15,2013-02-10 06:52:00,
2013-02-09 22:53:00,37.5,32.2,30.11,NW,310,0.0,0.0,81,0.00,,,0.00,Wunderground v.1.15,2013-02-10 06:53:00,
2013-02-09 22:55:00,37.4,32.4,30.11,NW,310,0.0,0.0,82,0.00,,,0.00,Wunderground v.1.15,2013-02-10 06:55:00,
2013-02-09 22:57:00,37.4,32.4,30.11,NW,310,0.0,0.0,82,0.00,,,0.00,Wunderground v.1.15,2013-02-10 06:57:00,
2013-02-09 22:58:00,37.3,32.3,30.11,NW,310,0.0,0.0,82,0.00,,,0.00,Wunderground v.1.15,2013-02-10 06:58:00,
2013-02-09 23:00:00,37.3,32.3,30.11,NW,310,0.0,0.0,82,0.00,,,0.00,Wunderground v.1.15,2013-02-10 07:00:00,
2013-02-09 23:03:00,37.3,32.3,30.11,NW,310,0.0,0.0,82,0.00,,,0.00,Wunderground v.1.15,2013-02-10 07:03:00,
2013-02-09 23:05:00,37.3,32.3,30.11,NW,310,0.0,0.0,82,0.00,,,0.00,Wunderground v.1.15,2013-02-10 07:05:00,
2013-02-09 23:08:00,37.3,32.3,30.11,NW,310,0.0,0.0,82,0.00,,,0.00,Wunderground v.1.15,2013-02-10 07:08:00,
2013-02-09 23:09:00,37.3,32.3,30.11,NW,310,0.0,0.0,82,0.00,,,0.00,Wunderground v.1.15,2013-02-10 07:09:00,
2013-02-09 23:10:00,37.4,32.7,30.11,NW,310,3.0,3.0,83,0.00,,,0.00,Wunderground v.1.15,2013-02-10 07:10:00,
2013-02-09 23:13:00,37.7,32.7,30.11,NW,310,3.0,4.0,82,0.00,,,0.00,Wunderground v.1.15,2013-02-10 07:13:00,
2013-02-09 23:14:00,37.7,32.7,30.12,NW,310,3.0,4.0,82,0.00,,,0.00,Wunderground v.1.15,2013-02-10 07:14:00,
2013-02-09 23:16:00,37.7,32.7,30.12,NW,310,3.0,4.0,82,0.00,,,0.00,Wunderground v.1.15,2013-02-10 07:16:00,
2013-02-09 23:18:00,37.5,32.5,30.12,NW,310,4.0,4.0,82,0.00,,,0.00,Wunderground v.1.15,2013-02-10 07:18:00,
2013-02-09 23:19:00,37.5,32.5,30.12,NW,310,4.0,4.0,82,0.00,,,0.00,Wunderground v.1.15,2013-02-10 07:19:00,
2013-02-09 23:21:00,37.7,32.7,30.12,NW,310,3.0,4.0,82,0.00,,,0.00,Wunderground v.1.15,2013-02-10 07:21:00,
2013-02-09 23:23:00,37.7,32.7,30.12,NW,310,3.0,4.0,82,0.00,,,0.00,Wunderground v.1.15,2013-02-10 07:23:00,
2013-02-09 23:24:00,37.7,32.7,30.12,NW,310,3.0,4.0,82,0.00,,,0.00,Wunderground v.1.15,2013-02-10 07:24:00,
2013-02-09 23:26:00,37.6,32.6,30.12,NW,310,1.0,4.0,82,0.00,,,0.00,Wunderground v.1.15,2013-02-10 07:26:00,
2013-02-09 23:28:00,37.5,32.5,30.12,NW,310,0.0,4.0,82,0.00,,,0.00,Wunderground v.1.15,2013-02-10 07:28:00,
2013-02-09 23:29:00,37.5,32.2,30.12,NW,310,0.0,4.0,81,0.00,,,0.00,Wunderground v.1.15,2013-02-10 07:29:00,
2013-02-09 23:32:00,37.3,32.0,30.12,NW,310,0.0,2.0,81,0.00,,,0.00,Wunderground v.1.15,2013-02-10 07:32:00,
2013-02-09 23:34:00,37.1,31.8,30.12,NW,310,0.0,2.0,81,0.00,,,0.00,Wunderground v.1.15,2013-02-10 07:34:00,
2013-02-09 23:35:00,37.0,31.7,30.12,NW,310,0.0,2.0,81,0.00,,,0.00,Wunderground v.1.15,2013-02-10 07:35:00,
2013-02-09 23:37:00,36.9,31.6,30.12,NW,310,0.0,2.0,81,0.00,,,0.00,Wunderground v.1.15,2013-02-10 07:37:00,
2013-02-09 23:39:00,36.8,31.8,30.12,NW,310,0.0,2.0,82,0.00,,,0.00,Wunderground v.1.15,2013-02-10 07:39:00,
2013-02-09 23:40:00,36.7,31.7,30.12,NW,310,0.0,0.0,82,0.00,,,0.00,Wunderground v.1.15,2013-02-10 07:40:00,
2013-02-09 23:41:00,36.6,31.9,30.12,NW,310,1.0,1.0,83,0.00,,,0.00,Wunderground v.1.15,2013-02-10 07:41:00,
2013-02-09 23:42:00,36.6,31.9,30.12,NW,310,1.0,1.0,83,0.00,,,0.00,Wunderground v.1.15,2013-02-10 07:42:00,
2013-02-09 23:45:00,36.6,31.9,30.12,NW,310,0.0,1.0,83,0.00,,,0.00,Wunderground v.1.15,2013-02-10 07:45:00,
2013-02-09 23:46:00,36.5,31.8,30.12,NW,310,0.0,1.0,83,0.00,,,0.00,Wunderground v.1.15,2013-02-10 07:46:00,
2013-02-09 23:47:00,36.5,31.8,30.12,NW,310,0.0,1.0,83,0.00,,,0.00,Wunderground v.1.15,2013-02-10 07:47:00,
2013-02-09 23:50:00,36.4,31.7,30.12,NW,310,0.0,0.0,83,0.00,,,0.00,Wunderground v.1.15,2013-02-10 07:50:00,
2013-02-09 23:52:00,36.2,31.5,30.12,NW,310,0.0,0.0,83,0.00,,,0.00,Wunderground v.1.15,2013-02-10 07:52:00,
2013-02-09 23:54:00,36.1,31.4,30.13,NW,310,0.0,0.0,83,0.00,,,0.00,Wunderground v.1.15,2013-02-10 07:54:00,
2013-02-09 23:55:00,36.1,31.4,30.13,NW,310,0.0,0.0,83,0.00,,,0.00,Wunderground v.1.15,2013-02-10 07:55:00,
2013-02-09 23:57:00,36.0,31.6,30.13,NW,310,1.0,1.0,84,0.00,,,0.00,Wunderground v.1.15,2013-02-10 07:57:00,